Wetterdaten: Sonntag, 26.02.2023
Datum Zeit Temp. Aussen Temp. o. S. Temp +5cm Feuchte Auss Luftdruck Regen Sonnenschein Regendauer Solar Windben Empfang
26.02.2023 00:00 0,7 C -0,6 C -3,3 C 81 % 1017,1 hPa 0,0 l/m 0 min 0 min 0 W/m 19,3 km/h (3 Bft) 93,62 %
26.02.2023 00:02 0,7 C -0,6 C -3,3 C 81 % 1017,1 hPa 0,0 l/m 0 min 0 min 0 W/m 6,4 km/h (2 Bft) 15,38 %
26.02.2023 00:04 0,7 C -0,6 C -3,3 C 82 % 1017,1 hPa 0,0 l/m 0 min 0 min 0 W/m 12,9 km/h (3 Bft) 76,74 %
26.02.2023 00:07 0,6 C -0,6 C -3,9 C 82 % 1017,2 hPa 0,0 l/m 0 min 0 min 0 W/m 6,4 km/h (2 Bft) 97,26 %
26.02.2023 00:08 0,6 C -0,6 C -3,9 C 82 % 1017,2 hPa 0,0 l/m 0 min 0 min 0 W/m 6,4 km/h (2 Bft) 100,00 %
26.02.2023 00:10 0,6 C -0,6 C -3,9 C 82 % 1017,1 hPa 0,0 l/m 0 min 0 min 0 W/m 6,4 km/h (2 Bft) 97,14 %
26.02.2023 00:12 0,6 C -0,6 C -3,9 C 82 % 1017,1 hPa 0,0 l/m 0 min 0 min 0 W/m 3,2 km/h (1 Bft) 97,87 %
26.02.2023 00:14 0,6 C -0,6 C -3,9 C 82 % 1017,2 hPa 0,0 l/m 0 min 0 min 0 W/m 3,2 km/h (1 Bft) 100,00 %
26.02.2023 00:16 0,6 C -0,6 C -3,9 C 82 % 1017,1 hPa 0,0 l/m 0 min 0 min 0 W/m 9,7 km/h (2 Bft) 100,00 %
26.02.2023 00:18 0,6 C -0,6 C -3,9 C 82 % 1017,1 hPa 0,0 l/m 0 min 0 min 0 W/m 6,4 km/h (2 Bft) 100,00 %
26.02.2023 00:20 0,6 C -0,6 C -3,9 C 82 % 1017,1 hPa 0,0 l/m 0 min 0 min 0 W/m 9,7 km/h (2 Bft) 100,00 %
26.02.2023 00:22 0,5 C -1,1 C -3,9 C 82 % 1017,2 hPa 0,0 l/m 0 min 0 min 0 W/m 6,4 km/h (2 Bft) 100,00 %
26.02.2023 00:24 0,5 C -1,1 C -3,9 C 82 % 1017,1 hPa 0,0 l/m 0 min 0 min 0 W/m 3,2 km/h (1 Bft) 100,00 %
26.02.2023 00:26 0,4 C -1,1 C -3,9 C 82 % 1017,2 hPa 0,0 l/m 0 min 0 min 0 W/m 6,4 km/h (2 Bft) 97,73 %
26.02.2023 00:28 0,4 C -1,1 C -3,9 C 82 % 1017,2 hPa 0,0 l/m 0 min 0 min 0 W/m 6,4 km/h (2 Bft) 100,00 %
26.02.2023 00:30 0,4 C -1,1 C -3,9 C 82 % 1017,2 hPa 0,0 l/m 0 min 0 min 0 W/m 9,7 km/h (2 Bft) 100,00 %
26.02.2023 00:32 0,4 C -1,1 C -3,9 C 82 % 1017,2 hPa 0,0 l/m 0 min 0 min 0 W/m 9,7 km/h (2 Bft) 95,74 %
26.02.2023 00:34 0,3 C -1,1 C -3,9 C 83 % 1017,3 hPa 0,0 l/m 0 min 0 min 0 W/m 3,2 km/h (1 Bft) 97,83 %
26.02.2023 00:36 0,3 C -1,1 C -3,9 C 83 % 1017,2 hPa 0,0 l/m 0 min 0 min 0 W/m 6,4 km/h (2 Bft) 97,87 %
26.02.2023 00:38 0,3 C -1,1 C -3,9 C 83 % 1017,2 hPa 0,0 l/m 0 min 0 min 0 W/m 6,4 km/h (2 Bft) 97,87 %
26.02.2023 00:40 0,3 C -1,1 C -3,9 C 83 % 1017,2 hPa 0,0 l/m 0 min 0 min 0 W/m 3,2 km/h (1 Bft) 97,87 %
26.02.2023 00:42 0,2 C -1,1 C -4,4 C 83 % 1017,3 hPa 0,0 l/m 0 min 0 min 0 W/m 3,2 km/h (1 Bft) 97,87 %
26.02.2023 00:44 0,2 C -1,1 C -4,4 C 83 % 1017,2 hPa 0,0 l/m 0 min 0 min 0 W/m 3,2 km/h (1 Bft) 97,87 %
26.02.2023 00:46 0,2 C -1,1 C -4,4 C 83 % 1017,3 hPa 0,0 l/m 0 min 0 min 0 W/m 6,4 km/h (2 Bft) 97,83 %
26.02.2023 00:48 0,2 C -1,1 C -4,4 C 83 % 1017,3 hPa 0,0 l/m 0 min 0 min 0 W/m 6,4 km/h (2 Bft) 97,87 %
26.02.2023 00:50 0,1 C -1,1 C -4,4 C 83 % 1017,3 hPa 0,0 l/m 0 min 0 min 0 W/m 6,4 km/h (2 Bft) 95,74 %
26.02.2023 00:52 0,1 C -1,1 C -4,4 C 83 % 1017,4 hPa 0,0 l/m 0 min 0 min 0 W/m 3,2 km/h (1 Bft) 97,87 %
26.02.2023 00:54 0,1 C -1,1 C -4,4 C 83 % 1017,4 hPa 0,0 l/m 0 min 0 min 0 W/m 6,4 km/h (2 Bft) 95,74 %
26.02.2023 00:56 0,0 C -1,7 C -4,4 C 83 % 1017,4 hPa 0,0 l/m 0 min 0 min 0 W/m 6,4 km/h (2 Bft) 97,87 %
26.02.2023 00:58 0,0 C -1,7 C -4,4 C 84 % 1017,4 hPa 0,0 l/m 0 min 0 min 0 W/m 3,2 km/h (1 Bft) 93,62 %
26.02.2023 01:00 -0,1 C -1,7 C -4,4 C 84 % 1017,4 hPa 0,0 l/m 0 min 0 min 0 W/m 6,4 km/h (2 Bft) 100,00 %
26.02.2023 01:02 -0,1 C -1,1 C -4,4 C 84 % 1017,4 hPa 0,0 l/m 0 min 0 min 0 W/m 6,4 km/h (2 Bft) 100,00 %
26.02.2023 01:04 -0,1 C -1,1 C -4,4 C 84 % 1017,5 hPa 0,0 l/m 0 min 0 min 0 W/m 6,4 km/h (2 Bft) 100,00 %
26.02.2023 01:06 -0,1 C -1,1 C -4,4 C 84 % 1017,5 hPa 0,0 l/m 0 min 0 min 0 W/m 6,4 km/h (2 Bft) 100,00 %
26.02.2023 01:08 -0,1 C -1,1 C -3,9 C 84 % 1017,5 hPa 0,0 l/m 0 min 0 min 0 W/m 3,2 km/h (1 Bft) 100,00 %
26.02.2023 01:10 -0,1 C -1,1 C -3,9 C 85 % 1017,5 hPa 0,0 l/m 0 min 0 min 0 W/m 6,4 km/h (2 Bft) 100,00 %
26.02.2023 01:12 -0,1 C -0,6 C -3,9 C 85 % 1017,5 hPa 0,0 l/m 0 min 0 min 0 W/m 3,2 km/h (1 Bft) 100,00 %
26.02.2023 01:14 -0,1 C -0,6 C -3,9 C 85 % 1017,5 hPa 0,0 l/m 0 min 0 min 0 W/m 9,7 km/h (2 Bft) 97,92 %
26.02.2023 01:16 -0,1 C -0,6 C -3,9 C 85 % 1017,6 hPa 0,0 l/m 0 min 0 min 0 W/m 6,4 km/h (2 Bft) 97,87 %
26.02.2023 01:18 -0,1 C -0,6 C -3,9 C 85 % 1017,5 hPa 0,0 l/m 0 min 0 min 0 W/m 6,4 km/h (2 Bft) 100,00 %
26.02.2023 01:20 -0,1 C -1,1 C -3,9 C 85 % 1017,6 hPa 0,0 l/m 0 min 0 min 0 W/m 9,7 km/h (2 Bft) 97,87 %
26.02.2023 01:22 -0,1 C -1,1 C -3,9 C 85 % 1017,6 hPa 0,0 l/m 0 min 0 min 0 W/m 9,7 km/h (2 Bft) 100,00 %
26.02.2023 01:24 -0,1 C -1,1 C -3,9 C 85 % 1017,6 hPa 0,0 l/m 0 min 0 min 0 W/m 6,4 km/h (2 Bft) 97,87 %
26.02.2023 01:26 -0,1 C -1,1 C -3,9 C 86 % 1017,6 hPa 0,0 l/m 0 min 0 min 0 W/m 12,9 km/h (3 Bft) 95,74 %
26.02.2023 01:28 -0,1 C -1,1 C -3,9 C 86 % 1017,7 hPa 0,0 l/m 0 min 0 min 0 W/m 9,7 km/h (2 Bft) 97,87 %
26.02.2023 01:30 -0,1 C -1,1 C -3,9 C 86 % 1017,7 hPa 0,0 l/m 0 min 0 min 0 W/m 6,4 km/h (2 Bft) 97,87 %
26.02.2023 01:32 -0,1 C -1,1 C -3,9 C 86 % 1017,7 hPa 0,0 l/m 0 min 0 min 0 W/m 9,7 km/h (2 Bft) 97,87 %
26.02.2023 01:34 -0,1 C -0,6 C -3,9 C 86 % 1017,7 hPa 0,0 l/m 0 min 0 min 0 W/m 6,4 km/h (2 Bft) 95,00 %
26.02.2023 01:36 -0,1 C -0,6 C -3,9 C 86 % 1017,8 hPa 0,0 l/m 0 min 0 min 0 W/m 6,4 km/h (2 Bft) 97,87 %
26.02.2023 01:38 -0,1 C -0,6 C -3,9 C 86 % 1017,8 hPa 0,0 l/m 0 min 0 min 0 W/m 6,4 km/h (2 Bft) 97,83 %
26.02.2023 01:40 -0,1 C -0,6 C -3,9 C 86 % 1017,9 hPa 0,0 l/m 0 min 0 min 0 W/m 6,4 km/h (2 Bft) 95,74 %
26.02.2023 01:42 -0,1 C -0,6 C -3,9 C 86 % 1017,9 hPa 0,0 l/m 0 min 0 min 0 W/m 9,7 km/h (2 Bft) 95,83 %
26.02.2023 01:44 -0,1 C -0,6 C -3,9 C 86 % 1017,9 hPa 0,0 l/m 0 min 0 min 0 W/m 9,7 km/h (2 Bft) 97,87 %
26.02.2023 01:46 -0,1 C -0,6 C -3,9 C 86 % 1017,9 hPa 0,0 l/m 0 min 0 min 0 W/m 6,4 km/h (2 Bft) 97,87 %
26.02.2023 01:48 0,0 C -0,6 C -3,9 C 86 % 1017,9 hPa 0,0 l/m 0 min 0 min 0 W/m 6,4 km/h (2 Bft) 95,74 %
26.02.2023 01:50 0,0 C -0,6 C -3,9 C 86 % 1018,0 hPa 0,0 l/m 0 min 0 min 0 W/m 6,4 km/h (2 Bft) 93,48 %
26.02.2023 01:52 0,0 C -0,6 C -3,9 C 86 % 1018,0 hPa 0,0 l/m 0 min 0 min 0 W/m 6,4 km/h (2 Bft) 97,87 %
26.02.2023 01:54 0,1 C -0,6 C -3,9 C 86 % 1018,0 hPa 0,0 l/m 0 min 0 min 0 W/m 6,4 km/h (2 Bft) 95,74 %
26.02.2023 01:56 0,1 C -0,6 C -3,9 C 86 % 1018,0 hPa 0,0 l/m 0 min 0 min 0 W/m 3,2 km/h (1 Bft) 95,74 %
26.02.2023 01:58 0,1 C -0,6 C -3,9 C 86 % 1018,0 hPa 0,0 l/m 0 min 0 min 0 W/m 6,4 km/h (2 Bft) 97,87 %
26.02.2023 02:00 0,1 C -0,6 C -3,9 C 86 % 1018,0 hPa 0,0 l/m 0 min 0 min 0 W/m 6,4 km/h (2 Bft) 100,00 %
26.02.2023 02:02 0,1 C -0,6 C -3,9 C 86 % 1017,9 hPa 0,0 l/m 0 min 0 min 0 W/m 9,7 km/h (2 Bft) 85,11 %
26.02.2023 02:04 0,1 C -0,6 C -3,9 C 86 % 1018,0 hPa 0,0 l/m 0 min 0 min 0 W/m 3,2 km/h (1 Bft) 64,86 %
26.02.2023 02:06 0,1 C -0,6 C -3,9 C 87 % 1018,0 hPa 0,0 l/m 0 min 0 min 0 W/m 3,2 km/h (1 Bft) 100,00 %
26.02.2023 02:08 0,1 C -0,6 C -3,9 C 87 % 1018,0 hPa 0,0 l/m 0 min 0 min 0 W/m 6,4 km/h (2 Bft) 100,00 %
26.02.2023 02:10 0,2 C -0,6 C -3,9 C 87 % 1018,0 hPa 0,0 l/m 0 min 0 min 0 W/m 6,4 km/h (2 Bft) 100,00 %
26.02.2023 02:12 0,2 C -0,6 C -3,9 C 87 % 1018,0 hPa 0,0 l/m 0 min 0 min 0 W/m 9,7 km/h (2 Bft) 100,00 %
26.02.2023 02:14 0,2 C -0,6 C -3,9 C 87 % 1018,0 hPa 0,0 l/m 0 min 0 min 0 W/m 9,7 km/h (2 Bft) 96,43 %
26.02.2023 02:16 0,2 C -0,6 C -3,9 C 87 % 1018,0 hPa 0,0 l/m 0 min 0 min 0 W/m 12,9 km/h (3 Bft) 97,83 %
26.02.2023 02:18 0,2 C -0,6 C -3,3 C 87 % 1018,1 hPa 0,0 l/m 0 min 0 min 0 W/m 12,9 km/h (3 Bft) 97,87 %
26.02.2023 02:20 0,2 C -0,6 C -3,3 C 87 % 1018,2 hPa 0,0 l/m 0 min 0 min 0 W/m 9,7 km/h (2 Bft) 97,87 %
26.02.2023 02:22 0,2 C -0,6 C -3,3 C 87 % 1018,2 hPa 0,0 l/m 0 min 0 min 0 W/m 12,9 km/h (3 Bft) 95,74 %
26.02.2023 02:24 0,3 C -0,6 C -3,3 C 87 % 1018,2 hPa 0,0 l/m 0 min 0 min 0 W/m 6,4 km/h (2 Bft) 97,96 %
26.02.2023 02:26 0,3 C -0,6 C -3,3 C 87 % 1018,2 hPa 0,0 l/m 0 min 0 min 0 W/m 9,7 km/h (2 Bft) 97,87 %
26.02.2023 02:28 0,3 C -0,6 C -3,9 C 87 % 1018,1 hPa 0,0 l/m 0 min 0 min 0 W/m 9,7 km/h (2 Bft) 97,83 %
26.02.2023 02:30 0,3 C -0,6 C -3,9 C 87 % 1018,2 hPa 0,0 l/m 0 min 0 min 0 W/m 9,7 km/h (2 Bft) 97,87 %
26.02.2023 02:32 0,3 C -0,6 C -3,9 C 87 % 1018,2 hPa 0,0 l/m 0 min 0 min 0 W/m 9,7 km/h (2 Bft) 95,74 %
26.02.2023 02:34 0,3 C -0,6 C -3,9 C 87 % 1018,1 hPa 0,0 l/m 0 min 0 min 0 W/m 12,9 km/h (3 Bft) 97,87 %
26.02.2023 02:36 0,2 C -0,6 C -3,9 C 87 % 1018,2 hPa 0,0 l/m 0 min 0 min 0 W/m 6,4 km/h (2 Bft) 97,87 %
26.02.2023 02:38 0,2 C -0,6 C -3,9 C 87 % 1018,2 hPa 0,0 l/m 0 min 0 min 0 W/m 16,1 km/h (3 Bft) 93,62 %
26.02.2023 02:40 0,2 C -0,6 C -3,9 C 87 % 1018,2 hPa 0,0 l/m 0 min 0 min 0 W/m 6,4 km/h (2 Bft) 95,65 %
26.02.2023 02:42 0,2 C -0,6 C -3,9 C 87 % 1018,2 hPa 0,0 l/m 0 min 0 min 0 W/m 9,7 km/h (2 Bft) 95,74 %
26.02.2023 02:44 0,2 C -1,1 C -3,9 C 87 % 1018,2 hPa 0,0 l/m 0 min 0 min 0 W/m 12,9 km/h (3 Bft) 95,74 %
26.02.2023 02:46 0,2 C -1,1 C -3,9 C 87 % 1018,2 hPa 0,0 l/m 0 min 0 min 0 W/m 9,7 km/h (2 Bft) 95,74 %
26.02.2023 02:48 0,1 C -1,1 C -3,9 C 87 % 1018,3 hPa 0,0 l/m 0 min 0 min 0 W/m 6,4 km/h (2 Bft) 97,92 %
26.02.2023 02:50 0,1 C -1,1 C -3,9 C 87 % 1018,2 hPa 0,0 l/m 0 min 0 min 0 W/m 6,4 km/h (2 Bft) 97,87 %
26.02.2023 02:52 0,1 C -1,1 C -3,9 C 86 % 1018,2 hPa 0,0 l/m 0 min 0 min 0 W/m 12,9 km/h (3 Bft) 97,83 %
26.02.2023 02:54 0,1 C -1,1 C -3,9 C 86 % 1018,3 hPa 0,0 l/m 0 min 0 min 0 W/m 6,4 km/h (2 Bft) 95,74 %
26.02.2023 02:56 0,1 C -1,1 C -3,9 C 86 % 1018,3 hPa 0,0 l/m 0 min 0 min 0 W/m 3,2 km/h (1 Bft) 95,74 %
26.02.2023 02:58 0,1 C -1,1 C -3,9 C 86 % 1018,3 hPa 0,0 l/m 0 min 0 min 0 W/m 6,4 km/h (2 Bft) 97,14 %
26.02.2023 03:00 0,0 C -1,1 C -4,4 C 86 % 1018,3 hPa 0,0 l/m 0 min 0 min 0 W/m 6,4 km/h (2 Bft) 97,87 %
26.02.2023 03:02 0,0 C -1,1 C -3,9 C 86 % 1018,3 hPa 0,0 l/m 0 min 0 min 0 W/m 16,1 km/h (3 Bft) 97,87 %
26.02.2023 03:04 0,0 C -1,1 C -3,9 C 86 % 1018,3 hPa 0,0 l/m 0 min 0 min 0 W/m 9,7 km/h (2 Bft) 97,87 %
26.02.2023 03:06 0,0 C -1,1 C -3,9 C 87 % 1018,3 hPa 0,0 l/m 0 min 0 min 0 W/m 6,4 km/h (2 Bft) 96,55 %
26.02.2023 03:08 -0,1 C -1,1 C -3,9 C 87 % 1018,3 hPa 0,0 l/m 0 min 0 min 0 W/m 3,2 km/h (1 Bft) 97,22 %
26.02.2023 03:10 -0,1 C -1,1 C -3,9 C 87 % 1018,4 hPa 0,0 l/m 0 min 0 min 0 W/m 12,9 km/h (3 Bft) 97,83 %
26.02.2023 03:12 -0,1 C -1,1 C -3,9 C 87 % 1018,4 hPa 0,0 l/m 0 min 0 min 0 W/m 9,7 km/h (2 Bft) 95,83 %
26.02.2023 03:14 -0,1 C -1,1 C -3,9 C 87 % 1018,5 hPa 0,0 l/m 0 min 0 min 0 W/m 9,7 km/h (2 Bft) 97,87 %
26.02.2023 03:16 -0,1 C -1,1 C -3,9 C 87 % 1018,6 hPa 0,0 l/m 0 min 0 min 0 W/m 12,9 km/h (3 Bft) 97,87 %
26.02.2023 03:18 -0,1 C -1,1 C -3,9 C 87 % 1018,6 hPa 0,0 l/m 0 min 0 min 0 W/m 12,9 km/h (3 Bft) 97,87 %
26.02.2023 03:20 -0,1 C -1,1 C -4,4 C 87 % 1018,5 hPa 0,0 l/m 0 min 0 min 0 W/m 9,7 km/h (2 Bft) 93,62 %
26.02.2023 03:22 -0,1 C -1,1 C -4,4 C 87 % 1018,5 hPa 0,0 l/m 0 min 0 min 0 W/m 9,7 km/h (2 Bft) 95,65 %
26.02.2023 03:24 -0,1 C -1,1 C -4,4 C 87 % 1018,5 hPa 0,0 l/m 0 min 0 min 0 W/m 9,7 km/h (2 Bft) 95,74 %
26.02.2023 03:26 -0,1 C -1,1 C -4,4 C 87 % 1018,6 hPa 0,0 l/m 0 min 0 min 0 W/m 6,4 km/h (2 Bft) 89,36 %
26.02.2023 03:28 -0,2 C -1,1 C -4,4 C 87 % 1018,6 hPa 0,0 l/m 0 min 0 min 0 W/m 9,7 km/h (2 Bft) 56,41 %
26.02.2023 03:30 -0,2 C -1,1 C -4,4 C 87 % 1018,6 hPa 0,0 l/m 0 min 0 min 0 W/m 9,7 km/h (2 Bft) 95,74 %
26.02.2023 03:32 -0,2 C -1,1 C -4,4 C 87 % 1018,6 hPa 0,0 l/m 0 min 0 min 0 W/m 12,9 km/h (3 Bft) 97,87 %
26.02.2023 03:34 -0,2 C -1,1 C -4,4 C 87 % 1018,7 hPa 0,0 l/m 0 min 0 min 0 W/m 6,4 km/h (2 Bft) 96,23 %
26.02.2023 03:36 -0,2 C -1,1 C -4,4 C 87 % 1018,7 hPa 0,0 l/m 0 min 0 min 0 W/m 6,4 km/h (2 Bft) 97,87 %
26.02.2023 03:38 -0,2 C -1,1 C -4,4 C 87 % 1018,7 hPa 0,0 l/m 0 min 0 min 0 W/m 6,4 km/h (2 Bft) 95,74 %
26.02.2023 03:40 -0,3 C -1,1 C -4,4 C 87 % 1018,8 hPa 0,0 l/m 0 min 0 min 0 W/m 6,4 km/h (2 Bft) 97,87 %
26.02.2023 03:42 -0,3 C -1,1 C -4,4 C 87 % 1018,8 hPa 0,0 l/m 0 min 0 min 0 W/m 6,4 km/h (2 Bft) 97,87 %
26.02.2023 03:44 -0,3 C -1,1 C -4,4 C 87 % 1018,9 hPa 0,0 l/m 0 min 0 min 0 W/m 3,2 km/h (1 Bft) 95,74 %
26.02.2023 03:46 -0,3 C -1,7 C -4,4 C 87 % 1018,9 hPa 0,0 l/m 0 min 0 min 0 W/m 12,9 km/h (3 Bft) 97,83 %
26.02.2023 03:48 -0,3 C -1,1 C -4,4 C 87 % 1018,9 hPa 0,0 l/m 0 min 0 min 0 W/m 9,7 km/h (2 Bft) 97,87 %
26.02.2023 03:50 -0,3 C -1,7 C -4,4 C 87 % 1018,9 hPa 0,0 l/m 0 min 0 min 0 W/m 6,4 km/h (2 Bft) 97,87 %
26.02.2023 03:52 -0,4 C -1,7 C -4,4 C 87 % 1019,0 hPa 0,0 l/m 0 min 0 min 0 W/m 6,4 km/h (2 Bft) 97,87 %
26.02.2023 03:54 -0,4 C -1,7 C -4,4 C 87 % 1019,0 hPa 0,0 l/m 0 min 0 min 0 W/m 12,9 km/h (3 Bft) 97,87 %
26.02.2023 03:56 -0,4 C -1,7 C -4,4 C 87 % 1019,0 hPa 0,0 l/m 0 min 0 min 0 W/m 6,4 km/h (2 Bft) 97,87 %
26.02.2023 03:58 -0,4 C -1,7 C -4,4 C 87 % 1019,0 hPa 0,0 l/m 0 min 0 min 0 W/m 12,9 km/h (3 Bft) 95,74 %
26.02.2023 04:00 -0,4 C -1,7 C -4,4 C 87 % 1019,0 hPa 0,0 l/m 0 min 0 min 0 W/m 6,4 km/h (2 Bft) 95,65 %
26.02.2023 04:02 -0,4 C -1,7 C -4,4 C 87 % 1019,0 hPa 0,0 l/m 0 min 0 min 0 W/m 6,4 km/h (2 Bft) 100,00 %
26.02.2023 04:04 -0,5 C -1,7 C -4,4 C 87 % 1019,1 hPa 0,0 l/m 0 min 0 min 0 W/m 16,1 km/h (3 Bft) 95,74 %
26.02.2023 04:06 -0,5 C -1,7 C -4,4 C 87 % 1019,0 hPa 0,0 l/m 0 min 0 min 0 W/m 6,4 km/h (2 Bft) 95,83 %
26.02.2023 04:08 -0,5 C -1,7 C -4,4 C 87 % 1019,1 hPa 0,0 l/m 0 min 0 min 0 W/m 9,7 km/h (2 Bft) 100,00 %
26.02.2023 04:10 -0,6 C -1,7 C -4,4 C 87 % 1019,1 hPa 0,0 l/m 0 min 0 min 0 W/m 9,7 km/h (2 Bft) 100,00 %
26.02.2023 04:12 -0,6 C -1,7 C -4,4 C 87 % 1019,1 hPa 0,0 l/m 0 min 0 min 0 W/m 6,4 km/h (2 Bft) 97,87 %
26.02.2023 04:14 -0,6 C -1,7 C -4,4 C 87 % 1019,1 hPa 0,0 l/m 0 min 0 min 0 W/m 9,7 km/h (2 Bft) 97,87 %
26.02.2023 04:16 -0,6 C -1,7 C -5,0 C 87 % 1019,1 hPa 0,0 l/m 0 min 0 min 0 W/m 3,2 km/h (1 Bft) 95,83 %
26.02.2023 04:18 -0,6 C -1,7 C -5,0 C 87 % 1019,1 hPa 0,0 l/m 0 min 0 min 0 W/m 3,2 km/h (1 Bft) 97,87 %
26.02.2023 04:20 -0,6 C -1,7 C -5,0 C 87 % 1019,1 hPa 0,0 l/m 0 min 0 min 0 W/m 6,4 km/h (2 Bft) 95,74 %
26.02.2023 04:22 -0,7 C -1,7 C -5,0 C 87 % 1019,1 hPa 0,0 l/m 0 min 0 min 0 W/m 6,4 km/h (2 Bft) 97,83 %
26.02.2023 04:24 -0,7 C -1,7 C -5,0 C 87 % 1019,2 hPa 0,0 l/m 0 min 0 min 0 W/m 3,2 km/h (1 Bft) 97,87 %
26.02.2023 04:26 -0,7 C -1,7 C -5,0 C 87 % 1019,2 hPa 0,0 l/m 0 min 0 min 0 W/m 9,7 km/h (2 Bft) 100,00 %
26.02.2023 04:28 -0,7 C -2,2 C -5,0 C 87 % 1019,2 hPa 0,0 l/m 0 min 0 min 0 W/m 9,7 km/h (2 Bft) 100,00 %
26.02.2023 04:30 -0,8 C -2,2 C -5,0 C 87 % 1019,2 hPa 0,0 l/m 0 min 0 min 0 W/m 3,2 km/h (1 Bft) 100,00 %
26.02.2023 04:32 -0,8 C -2,2 C -5,0 C 87 % 1019,2 hPa 0,0 l/m 0 min 0 min 0 W/m 6,4 km/h (2 Bft) 100,00 %
26.02.2023 04:34 -0,8 C -2,2 C -5,0 C 87 % 1019,3 hPa 0,0 l/m 0 min 0 min 0 W/m 6,4 km/h (2 Bft) 100,00 %
26.02.2023 04:36 -0,8 C -2,2 C -5,0 C 87 % 1019,3 hPa 0,0 l/m 0 min 0 min 0 W/m 6,4 km/h (2 Bft) 100,00 %
26.02.2023 04:38 -0,8 C -2,2 C -5,0 C 87 % 1019,4 hPa 0,0 l/m 0 min 0 min 0 W/m 6,4 km/h (2 Bft) 100,00 %
26.02.2023 04:40 -0,9 C -2,2 C -5,0 C 87 % 1019,4 hPa 0,0 l/m 0 min 0 min 0 W/m 9,7 km/h (2 Bft) 97,87 %
26.02.2023 04:42 -0,9 C -2,2 C -5,0 C 87 % 1019,5 hPa 0,0 l/m 0 min 0 min 0 W/m 6,4 km/h (2 Bft) 100,00 %
26.02.2023 04:44 -0,9 C -2,2 C -5,0 C 87 % 1019,5 hPa 0,0 l/m 0 min 0 min 0 W/m 6,4 km/h (2 Bft) 100,00 %
26.02.2023 04:46 -0,9 C -2,2 C -5,0 C 87 % 1019,5 hPa 0,0 l/m 0 min 0 min 0 W/m 6,4 km/h (2 Bft) 97,87 %
26.02.2023 04:48 -0,9 C -2,2 C -5,0 C 87 % 1019,5 hPa 0,0 l/m 0 min 0 min 0 W/m 9,7 km/h (2 Bft) 100,00 %
26.02.2023 04:50 -0,9 C -2,2 C -5,0 C 88 % 1019,6 hPa 0,0 l/m 0 min 0 min 0 W/m 6,4 km/h (2 Bft) 100,00 %
26.02.2023 04:52 -0,9 C -2,2 C -5,0 C 88 % 1019,6 hPa 0,0 l/m 0 min 0 min 0 W/m 12,9 km/h (3 Bft) 100,00 %
26.02.2023 04:54 -0,9 C -1,7 C -5,0 C 88 % 1019,6 hPa 0,0 l/m 0 min 0 min 0 W/m 6,4 km/h (2 Bft) 100,00 %
26.02.2023 04:56 -0,9 C -2,2 C -5,0 C 88 % 1019,6 hPa 0,0 l/m 0 min 0 min 0 W/m 3,2 km/h (1 Bft) 100,00 %
26.02.2023 04:58 -0,9 C -2,2 C -5,0 C 88 % 1019,6 hPa 0,0 l/m 0 min 0 min 0 W/m 12,9 km/h (3 Bft) 100,00 %
26.02.2023 05:00 -0,9 C -2,2 C -5,0 C 88 % 1019,7 hPa 0,0 l/m 0 min 0 min 0 W/m 12,9 km/h (3 Bft) 95,74 %
26.02.2023 05:02 -0,9 C -2,2 C -5,0 C 88 % 1019,6 hPa 0,0 l/m 0 min 0 min 0 W/m 6,4 km/h (2 Bft) 97,83 %
26.02.2023 05:04 -1,0 C -2,2 C -5,0 C 88 % 1019,7 hPa 0,0 l/m 0 min 0 min 0 W/m 6,4 km/h (2 Bft) 100,00 %
26.02.2023 05:06 -1,0 C -2,2 C -5,0 C 88 % 1019,7 hPa 0,0 l/m 0 min 0 min 0 W/m 12,9 km/h (3 Bft) 100,00 %
26.02.2023 05:08 -1,0 C -2,2 C -5,0 C 88 % 1019,7 hPa 0,0 l/m 0 min 0 min 0 W/m 6,4 km/h (2 Bft) 97,87 %
26.02.2023 05:10 -1,0 C -2,2 C -5,0 C 88 % 1019,7 hPa 0,0 l/m 0 min 0 min 0 W/m 6,4 km/h (2 Bft) 97,87 %
26.02.2023 05:12 -1,1 C -2,2 C -5,0 C 88 % 1019,8 hPa 0,0 l/m 0 min 0 min 0 W/m 9,7 km/h (2 Bft) 100,00 %
26.02.2023 05:14 -1,1 C -2,2 C -5,0 C 88 % 1019,8 hPa 0,0 l/m 0 min 0 min 0 W/m 9,7 km/h (2 Bft) 100,00 %
26.02.2023 05:16 -1,1 C -2,2 C -5,0 C 89 % 1019,8 hPa 0,0 l/m 0 min 0 min 0 W/m 6,4 km/h (2 Bft) 100,00 %
26.02.2023 05:18 -1,1 C -2,2 C -5,0 C 88 % 1019,9 hPa 0,0 l/m 0 min 0 min 0 W/m 9,7 km/h (2 Bft) 97,87 %
26.02.2023 05:23 -1,1 C -2,2 C -5,0 C 89 % 1019,9 hPa 0,0 l/m 0 min 0 min 0 W/m 9,7 km/h (2 Bft) 96,97 %
26.02.2023 05:28 -1,2 C -2,2 C -5,0 C 89 % 1020,0 hPa 0,0 l/m 0 min 0 min 0 W/m 16,1 km/h (3 Bft) 100,00 %
26.02.2023 05:30 -1,2 C -2,2 C -5,0 C 89 % 1020,0 hPa 0,0 l/m 0 min 0 min 0 W/m 9,7 km/h (2 Bft) 100,00 %
26.02.2023 05:32 -1,2 C -2,2 C -5,0 C 89 % 1019,9 hPa 0,0 l/m 0 min 0 min 0 W/m 6,4 km/h (2 Bft) 100,00 %
26.02.2023 05:34 -1,2 C -2,2 C -5,0 C 89 % 1019,9 hPa 0,0 l/m 0 min 0 min 0 W/m 9,7 km/h (2 Bft) 95,74 %
26.02.2023 05:36 -1,2 C -2,2 C -5,0 C 89 % 1020,0 hPa 0,0 l/m 0 min 0 min 0 W/m 12,9 km/h (3 Bft) 97,87 %
26.02.2023 05:38 -1,2 C -2,2 C -5,0 C 89 % 1020,1 hPa 0,0 l/m 0 min 0 min 0 W/m 9,7 km/h (2 Bft) 95,74 %
26.02.2023 05:40 -1,2 C -2,2 C -5,0 C 89 % 1020,1 hPa 0,0 l/m 0 min 0 min 0 W/m 9,7 km/h (2 Bft) 97,83 %
26.02.2023 05:42 -1,3 C -2,2 C -5,6 C 89 % 1020,1 hPa 0,0 l/m 0 min 0 min 0 W/m 9,7 km/h (2 Bft) 95,74 %
26.02.2023 05:44 -1,3 C -2,2 C -5,0 C 89 % 1020,0 hPa 0,0 l/m 0 min 0 min 0 W/m 12,9 km/h (3 Bft) 97,87 %
26.02.2023 05:46 -1,3 C -2,2 C -5,0 C 89 % 1020,1 hPa 0,0 l/m 0 min 0 min 0 W/m 6,4 km/h (2 Bft) 95,74 %
26.02.2023 05:48 -1,3 C -2,2 C -5,6 C 89 % 1020,1 hPa 0,0 l/m 0 min 0 min 0 W/m 6,4 km/h (2 Bft) 95,74 %
26.02.2023 05:50 -1,3 C -2,2 C -5,6 C 89 % 1020,1 hPa 0,0 l/m 0 min 0 min 0 W/m 9,7 km/h (2 Bft) 93,62 %
26.02.2023 05:52 -1,3 C -2,2 C -5,0 C 89 % 1020,1 hPa 0,0 l/m 0 min 0 min 0 W/m 12,9 km/h (3 Bft) 93,62 %
26.02.2023 05:54 -1,3 C -2,2 C -5,0 C 89 % 1020,2 hPa 0,0 l/m 0 min 0 min 0 W/m 9,7 km/h (2 Bft) 95,74 %
26.02.2023 05:56 -1,3 C -2,2 C -5,0 C 89 % 1020,2 hPa 0,0 l/m 0 min 0 min 0 W/m 9,7 km/h (2 Bft) 95,65 %
26.02.2023 05:58 -1,4 C -2,2 C -5,0 C 89 % 1020,2 hPa 0,0 l/m 0 min 0 min 0 W/m 9,7 km/h (2 Bft) 90,70 %
26.02.2023 06:00 -1,4 C -2,2 C -5,0 C 89 % 1020,4 hPa 0,0 l/m 0 min 0 min 0 W/m 12,9 km/h (3 Bft) 91,49 %
26.02.2023 06:02 -1,4 C -2,2 C -5,0 C 89 % 1020,4 hPa 0,0 l/m 0 min 0 min 0 W/m 9,7 km/h (2 Bft) 91,49 %
26.02.2023 06:04 -1,4 C -2,2 C -5,0 C 89 % 1020,4 hPa 0,0 l/m 0 min 0 min 0 W/m 6,4 km/h (2 Bft) 91,49 %
26.02.2023 06:07 -1,4 C -2,2 C -5,0 C 89 % 1020,4 hPa 0,0 l/m 0 min 0 min 0 W/m 19,3 km/h (3 Bft) 94,44 %
26.02.2023 06:08 -1,4 C -2,2 C -5,0 C 89 % 1020,4 hPa 0,0 l/m 0 min 0 min 0 W/m 12,9 km/h (3 Bft) 100,00 %
26.02.2023 06:12 -1,4 C -2,2 C -5,0 C 89 % 1020,5 hPa 0,0 l/m 0 min 0 min 0 W/m 9,7 km/h (2 Bft) 96,36 %
26.02.2023 06:14 -1,4 C -2,2 C -5,0 C 89 % 1020,5 hPa 0,0 l/m 0 min 0 min 0 W/m 6,4 km/h (2 Bft) 97,87 %
26.02.2023 06:16 -1,4 C -2,2 C -5,0 C 89 % 1020,5 hPa 0,0 l/m 0 min 0 min 0 W/m 9,7 km/h (2 Bft) 93,48 %
26.02.2023 06:18 -1,4 C -2,2 C -5,0 C 89 % 1020,5 hPa 0,0 l/m 0 min 0 min 0 W/m 19,3 km/h (3 Bft) 97,87 %
26.02.2023 06:20 -1,4 C -2,2 C -5,0 C 89 % 1020,5 hPa 0,0 l/m 0 min 0 min 0 W/m 6,4 km/h (2 Bft) 97,87 %
26.02.2023 06:22 -1,4 C -2,2 C -5,0 C 89 % 1020,6 hPa 0,0 l/m 0 min 0 min 0 W/m 6,4 km/h (2 Bft) 98,08 %
26.02.2023 06:24 -1,4 C -2,2 C -5,0 C 89 % 1020,6 hPa 0,0 l/m 0 min 0 min 0 W/m 3,2 km/h (1 Bft) 97,87 %
26.02.2023 06:26 -1,4 C -2,2 C -5,0 C 89 % 1020,6 hPa 0,0 l/m 0 min 0 min 0 W/m 6,4 km/h (2 Bft) 97,87 %
26.02.2023 06:28 -1,4 C -2,2 C -5,0 C 89 % 1020,6 hPa 0,0 l/m 0 min 0 min 0 W/m 12,9 km/h (3 Bft) 97,87 %
26.02.2023 06:30 -1,4 C -2,2 C -5,0 C 89 % 1020,6 hPa 0,0 l/m 0 min 0 min 0 W/m 9,7 km/h (2 Bft) 97,87 %
26.02.2023 06:32 -1,4 C -2,2 C -5,0 C 89 % 1020,6 hPa 0,0 l/m 0 min 0 min 0 W/m 22,5 km/h (4 Bft) 95,65 %
26.02.2023 06:34 -1,4 C -2,2 C -5,0 C 89 % 1020,6 hPa 0,0 l/m 0 min 0 min 0 W/m 12,9 km/h (3 Bft) 97,87 %
26.02.2023 06:36 -1,4 C -2,2 C -5,0 C 89 % 1020,7 hPa 0,0 l/m 0 min 0 min 0 W/m 3,2 km/h (1 Bft) 54,35 %
26.02.2023 06:38 -1,4 C -2,2 C -5,0 C 89 % 1020,7 hPa 0,0 l/m 0 min 0 min 0 W/m 9,7 km/h (2 Bft) 93,62 %
26.02.2023 06:40 -1,4 C -2,2 C -5,0 C 89 % 1020,7 hPa 0,0 l/m 0 min 0 min 0 W/m 9,7 km/h (2 Bft) 97,87 %
26.02.2023 06:42 -1,4 C -2,2 C -5,0 C 89 % 1020,8 hPa 0,0 l/m 0 min 0 min 0 W/m 12,9 km/h (3 Bft) 97,87 %
26.02.2023 06:44 -1,4 C -2,2 C -5,0 C 88 % 1020,8 hPa 0,0 l/m 0 min 0 min 0 W/m 9,7 km/h (2 Bft) 97,83 %
26.02.2023 06:46 -1,4 C -2,2 C -5,0 C 88 % 1020,8 hPa 0,0 l/m 0 min 0 min 0 W/m 9,7 km/h (2 Bft) 97,87 %
26.02.2023 06:48 -1,4 C -2,2 C -5,0 C 88 % 1020,9 hPa 0,0 l/m 0 min 0 min 0 W/m 6,4 km/h (2 Bft) 95,74 %
26.02.2023 06:50 -1,4 C -2,2 C -5,0 C 88 % 1020,9 hPa 0,0 l/m 0 min 0 min 0 W/m 9,7 km/h (2 Bft) 100,00 %
26.02.2023 06:52 -1,4 C -2,2 C -5,0 C 88 % 1020,9 hPa 0,0 l/m 0 min 0 min 0 W/m 6,4 km/h (2 Bft) 100,00 %
26.02.2023 06:54 -1,4 C -2,2 C -5,0 C 88 % 1020,9 hPa 0,0 l/m 0 min 0 min 0 W/m 12,9 km/h (3 Bft) 100,00 %
26.02.2023 06:56 -1,4 C -2,2 C -5,0 C 88 % 1021,0 hPa 0,0 l/m 0 min 0 min 0 W/m 6,4 km/h (2 Bft) 100,00 %
26.02.2023 06:58 -1,5 C -2,2 C -5,0 C 88 % 1021,0 hPa 0,0 l/m 0 min 0 min 0 W/m 9,7 km/h (2 Bft) 100,00 %
26.02.2023 07:00 -1,5 C -2,2 C -5,6 C 88 % 1021,1 hPa 0,0 l/m 0 min 0 min 0 W/m 12,9 km/h (3 Bft) 100,00 %
26.02.2023 07:02 -1,5 C -2,2 C -5,6 C 88 % 1021,0 hPa 0,0 l/m 0 min 0 min 0 W/m 16,1 km/h (3 Bft) 100,00 %
26.02.2023 07:04 -1,5 C -2,2 C -5,6 C 88 % 1021,1 hPa 0,0 l/m 0 min 0 min 0 W/m 9,7 km/h (2 Bft) 100,00 %
26.02.2023 07:06 -1,5 C -2,2 C -5,0 C 88 % 1021,1 hPa 0,0 l/m 0 min 0 min 0 W/m 12,9 km/h (3 Bft) 100,00 %
26.02.2023 07:08 -1,5 C -2,2 C -5,0 C 88 % 1021,1 hPa 0,0 l/m 0 min 0 min 0 W/m 6,4 km/h (2 Bft) 100,00 %
26.02.2023 07:10 -1,5 C -2,2 C -5,0 C 88 % 1021,2 hPa 0,0 l/m 0 min 0 min 0 W/m 16,1 km/h (3 Bft) 100,00 %
26.02.2023 07:12 -1,5 C -2,2 C -5,0 C 88 % 1021,2 hPa 0,0 l/m 0 min 0 min 0 W/m 6,4 km/h (2 Bft) 100,00 %
26.02.2023 07:14 -1,6 C -2,2 C -5,0 C 88 % 1021,3 hPa 0,0 l/m 0 min 0 min 0 W/m 9,7 km/h (2 Bft) 100,00 %
26.02.2023 07:16 -1,6 C -2,2 C -5,0 C 88 % 1021,2 hPa 0,0 l/m 0 min 0 min 0 W/m 12,9 km/h (3 Bft) 97,87 %
26.02.2023 07:18 -1,6 C -2,2 C -5,6 C 87 % 1021,3 hPa 0,0 l/m 0 min 0 min 0 W/m 6,4 km/h (2 Bft) 100,00 %
26.02.2023 07:20 -1,6 C -2,8 C -5,6 C 87 % 1021,3 hPa 0,0 l/m 0 min 0 min 0 W/m 3,2 km/h (1 Bft) 100,00 %
26.02.2023 07:22 -1,6 C -2,8 C -5,6 C 87 % 1021,3 hPa 0,0 l/m 0 min 0 min 0 W/m 9,7 km/h (2 Bft) 100,00 %
26.02.2023 07:24 -1,6 C -2,8 C -5,6 C 87 % 1021,3 hPa 0,0 l/m 0 min 0 min 0 W/m 9,7 km/h (2 Bft) 97,83 %
26.02.2023 07:26 -1,6 C -2,8 C -5,6 C 87 % 1021,3 hPa 0,0 l/m 0 min 0 min 0 W/m 3,2 km/h (1 Bft) 97,87 %
26.02.2023 07:28 -1,6 C -2,8 C -5,6 C 87 % 1021,4 hPa 0,0 l/m 0 min 0 min 3 W/m 6,4 km/h (2 Bft) 95,74 %
26.02.2023 07:30 -1,7 C -2,8 C -5,6 C 87 % 1021,5 hPa 0,0 l/m 0 min 0 min 5 W/m 6,4 km/h (2 Bft) 95,74 %
26.02.2023 07:32 -1,7 C -2,8 C -5,6 C 87 % 1021,5 hPa 0,0 l/m 0 min 0 min 5 W/m 9,7 km/h (2 Bft) 97,87 %
26.02.2023 07:34 -1,7 C -2,8 C -5,6 C 88 % 1021,5 hPa 0,0 l/m 0 min 0 min 6 W/m 9,7 km/h (2 Bft) 97,87 %
26.02.2023 07:36 -1,7 C -2,2 C -5,6 C 88 % 1021,5 hPa 0,0 l/m 0 min 0 min 7 W/m 12,9 km/h (3 Bft) 95,65 %
26.02.2023 07:38 -1,7 C -2,2 C -5,6 C 88 % 1021,5 hPa 0,0 l/m 0 min 0 min 8 W/m 6,4 km/h (2 Bft) 95,74 %
26.02.2023 07:40 -1,7 C -2,2 C -5,6 C 88 % 1021,5 hPa 0,0 l/m 0 min 0 min 9 W/m 9,7 km/h (2 Bft) 95,74 %
26.02.2023 07:42 -1,7 C -2,2 C -5,6 C 88 % 1021,6 hPa 0,0 l/m 0 min 0 min 10 W/m 6,4 km/h (2 Bft) 95,74 %
26.02.2023 07:44 -1,7 C -2,2 C -5,6 C 88 % 1021,6 hPa 0,0 l/m 0 min 0 min 11 W/m 9,7 km/h (2 Bft) 95,74 %
26.02.2023 07:46 -1,7 C -2,2 C -5,6 C 88 % 1021,6 hPa 0,0 l/m 0 min 0 min 11 W/m 9,7 km/h (2 Bft) 95,74 %
26.02.2023 07:48 -1,7 C -2,2 C -5,6 C 88 % 1021,6 hPa 0,0 l/m 0 min 0 min 12 W/m 9,7 km/h (2 Bft) 95,74 %
26.02.2023 07:50 -1,7 C -2,2 C -5,6 C 88 % 1021,7 hPa 0,0 l/m 0 min 0 min 12 W/m 6,4 km/h (2 Bft) 93,48 %
26.02.2023 07:52 -1,7 C -2,2 C -5,0 C 88 % 1021,7 hPa 0,0 l/m 0 min 0 min 13 W/m 3,2 km/h (1 Bft) 95,74 %
26.02.2023 07:54 -1,7 C -2,2 C -5,6 C 88 % 1021,8 hPa 0,0 l/m 0 min 0 min 14 W/m 16,1 km/h (3 Bft) 97,87 %
26.02.2023 07:56 -1,7 C -2,2 C -5,0 C 88 % 1021,9 hPa 0,0 l/m 0 min 0 min 15 W/m 12,9 km/h (3 Bft) 95,74 %
26.02.2023 07:58 -1,7 C -2,2 C -5,6 C 88 % 1021,9 hPa 0,0 l/m 0 min 0 min 16 W/m 6,4 km/h (2 Bft) 100,00 %
26.02.2023 08:00 -1,6 C -2,2 C -5,6 C 87 % 1021,9 hPa 0,0 l/m 0 min 0 min 16 W/m 9,7 km/h (2 Bft) 97,87 %
26.02.2023 08:02 -1,6 C -2,2 C -5,0 C 87 % 1021,9 hPa 0,0 l/m 0 min 0 min 18 W/m 12,9 km/h (3 Bft) 93,48 %
26.02.2023 08:04 -1,6 C -2,2 C -5,0 C 87 % 1022,0 hPa 0,0 l/m 0 min 0 min 18 W/m 16,1 km/h (3 Bft) 93,75 %
26.02.2023 08:06 -1,6 C -2,2 C -5,0 C 87 % 1021,9 hPa 0,0 l/m 0 min 0 min 18 W/m 16,1 km/h (3 Bft) 100,00 %
26.02.2023 08:08 -1,6 C -2,2 C -5,0 C 87 % 1021,9 hPa 0,0 l/m 0 min 0 min 19 W/m 12,9 km/h (3 Bft) 100,00 %
26.02.2023 08:10 -1,6 C -2,2 C -5,0 C 87 % 1022,0 hPa 0,0 l/m 0 min 0 min 19 W/m 16,1 km/h (3 Bft) 97,87 %
26.02.2023 08:12 -1,5 C -2,2 C -5,0 C 87 % 1022,0 hPa 0,0 l/m 0 min 0 min 21 W/m 12,9 km/h (3 Bft) 100,00 %
26.02.2023 08:14 -1,5 C -1,7 C -5,0 C 87 % 1022,1 hPa 0,0 l/m 0 min 0 min 21 W/m 16,1 km/h (3 Bft) 100,00 %
26.02.2023 08:16 -1,5 C -1,7 C -5,0 C 87 % 1022,1 hPa 0,0 l/m 0 min 0 min 21 W/m 9,7 km/h (2 Bft) 95,74 %
26.02.2023 08:18 -1,4 C -1,7 C -5,0 C 87 % 1022,1 hPa 0,0 l/m 0 min 0 min 23 W/m 16,1 km/h (3 Bft) 97,87 %
26.02.2023 08:20 -1,4 C -1,7 C -5,0 C 87 % 1022,1 hPa 0,0 l/m 0 min 0 min 23 W/m 9,7 km/h (2 Bft) 100,00 %
26.02.2023 08:22 -1,4 C -1,7 C -5,0 C 87 % 1022,2 hPa 0,0 l/m 0 min 0 min 24 W/m 12,9 km/h (3 Bft) 100,00 %
26.02.2023 08:24 -1,4 C -1,7 C -5,0 C 87 % 1022,3 hPa 0,0 l/m 0 min 0 min 25 W/m 9,7 km/h (2 Bft) 100,00 %
26.02.2023 08:26 -1,4 C -1,7 C -5,0 C 87 % 1022,3 hPa 0,0 l/m 0 min 0 min 25 W/m 12,9 km/h (3 Bft) 52,38 %
26.02.2023 08:28 -1,4 C -1,7 C -5,0 C 87 % 1022,3 hPa 0,0 l/m 0 min 0 min 26 W/m 6,4 km/h (2 Bft) 93,62 %
26.02.2023 08:30 -1,4 C -1,7 C -5,0 C 87 % 1022,4 hPa 0,0 l/m 0 min 0 min 26 W/m 9,7 km/h (2 Bft) 97,87 %
26.02.2023 08:32 -1,4 C -1,7 C -5,0 C 87 % 1022,4 hPa 0,0 l/m 0 min 0 min 26 W/m 16,1 km/h (3 Bft) 82,98 %
26.02.2023 08:34 -1,3 C -1,7 C -5,0 C 87 % 1022,5 hPa 0,0 l/m 0 min 0 min 27 W/m 12,9 km/h (3 Bft) 93,48 %
26.02.2023 08:36 -1,3 C -1,7 C -5,0 C 87 % 1022,5 hPa 0,0 l/m 0 min 0 min 28 W/m 9,7 km/h (2 Bft) 100,00 %
26.02.2023 08:38 -1,3 C -1,7 C -5,0 C 87 % 1022,6 hPa 0,0 l/m 0 min 0 min 28 W/m 16,1 km/h (3 Bft) 100,00 %
26.02.2023 08:40 -1,3 C -1,7 C -5,0 C 87 % 1022,6 hPa 0,0 l/m 0 min 0 min 29 W/m 16,1 km/h (3 Bft) 100,00 %
26.02.2023 08:42 -1,2 C -1,7 C -5,0 C 87 % 1022,7 hPa 0,0 l/m 0 min 0 min 30 W/m 9,7 km/h (2 Bft) 100,00 %
26.02.2023 08:44 -1,2 C -1,7 C -5,0 C 87 % 1022,6 hPa 0,0 l/m 0 min 0 min 30 W/m 12,9 km/h (3 Bft) 100,00 %
26.02.2023 08:46 -1,2 C -1,7 C -5,0 C 87 % 1022,6 hPa 0,0 l/m 0 min 0 min 31 W/m 16,1 km/h (3 Bft) 97,83 %
26.02.2023 08:48 -1,2 C -1,1 C -4,4 C 87 % 1022,6 hPa 0,0 l/m 0 min 0 min 58 W/m 9,7 km/h (2 Bft) 100,00 %
26.02.2023 08:50 -1,1 C -1,1 C -4,4 C 87 % 1022,7 hPa 0,0 l/m 2 min 0 min 174 W/m 12,9 km/h (3 Bft) 100,00 %
26.02.2023 08:52 -1,1 C -1,1 C -4,4 C 87 % 1022,7 hPa 0,0 l/m 2 min 0 min 188 W/m 12,9 km/h (3 Bft) 100,00 %
26.02.2023 08:54 -1,1 C -1,1 C -4,4 C 87 % 1022,8 hPa 0,0 l/m 2 min 0 min 182 W/m 9,7 km/h (2 Bft) 100,00 %
26.02.2023 08:56 -1,0 C 0,0 C -4,4 C 87 % 1022,7 hPa 0,0 l/m 2 min 0 min 191 W/m 9,7 km/h (2 Bft) 97,87 %
26.02.2023 08:58 -0,9 C 2,2 C -4,4 C 87 % 1022,8 hPa 0,0 l/m 2 min 0 min 158 W/m 6,4 km/h (2 Bft) 100,00 %
26.02.2023 09:00 -0,8 C 3,3 C -4,4 C 87 % 1022,8 hPa 0,0 l/m 2 min 0 min 136 W/m 12,9 km/h (3 Bft) 95,65 %
26.02.2023 09:02 -0,7 C 3,9 C -4,4 C 87 % 1022,7 hPa 0,0 l/m 2 min 0 min 149 W/m 9,7 km/h (2 Bft) 100,00 %
26.02.2023 09:04 -0,6 C 3,9 C -3,9 C 86 % 1022,8 hPa 0,0 l/m 2 min 0 min 120 W/m 9,7 km/h (2 Bft) 97,92 %
26.02.2023 09:06 -0,4 C 3,9 C -3,9 C 86 % 1022,8 hPa 0,0 l/m 2 min 0 min 131 W/m 16,1 km/h (3 Bft) 100,00 %
26.02.2023 09:08 -0,3 C 3,3 C -3,9 C 86 % 1022,8 hPa 0,0 l/m 2 min 0 min 219 W/m 16,1 km/h (3 Bft) 95,74 %
26.02.2023 09:10 -0,2 C 3,3 C -3,9 C 85 % 1022,9 hPa 0,0 l/m 2 min 0 min 204 W/m 16,1 km/h (3 Bft) 91,49 %
26.02.2023 09:12 -0,1 C 4,4 C -3,9 C 85 % 1022,9 hPa 0,0 l/m 2 min 0 min 221 W/m 9,7 km/h (2 Bft) 93,48 %
26.02.2023 09:14 0,1 C 4,4 C -3,9 C 85 % 1022,8 hPa 0,0 l/m 2 min 0 min 190 W/m 12,9 km/h (3 Bft) 95,74 %
26.02.2023 09:16 0,1 C 3,3 C -3,9 C 84 % 1022,8 hPa 0,0 l/m 2 min 0 min 191 W/m 22,5 km/h (4 Bft) 95,74 %
26.02.2023 09:18 0,2 C 3,9 C -3,9 C 84 % 1022,9 hPa 0,0 l/m 2 min 0 min 135 W/m 12,9 km/h (3 Bft) 91,49 %
26.02.2023 09:20 0,3 C 3,9 C -3,3 C 83 % 1022,9 hPa 0,0 l/m 2 min 0 min 149 W/m 25,7 km/h (4 Bft) 95,74 %
26.02.2023 09:22 0,3 C 3,3 C -3,3 C 83 % 1022,9 hPa 0,0 l/m 2 min 0 min 208 W/m 16,1 km/h (3 Bft) 93,62 %
26.02.2023 09:24 0,4 C 3,3 C -3,3 C 82 % 1022,9 hPa 0,0 l/m 0 min 0 min 134 W/m 22,5 km/h (4 Bft) 95,65 %
26.02.2023 09:26 0,5 C 3,9 C -3,3 C 82 % 1022,9 hPa 0,0 l/m 0 min 0 min 122 W/m 19,3 km/h (3 Bft) 91,49 %
26.02.2023 09:28 0,6 C 3,9 C -3,3 C 82 % 1023,0 hPa 0,0 l/m 2 min 0 min 150 W/m 9,7 km/h (2 Bft) 93,62 %
26.02.2023 09:30 0,6 C 3,9 C -3,3 C 82 % 1023,0 hPa 0,0 l/m 2 min 0 min 210 W/m 12,9 km/h (3 Bft) 93,62 %
26.02.2023 09:35 0,8 C 3,9 C -3,3 C 81 % 1023,1 hPa 0,0 l/m 5 min 0 min 218 W/m 16,1 km/h (3 Bft) 96,49 %
26.02.2023 09:40 1,0 C 3,9 C -3,3 C 80 % 1023,3 hPa 0,0 l/m 0 min 0 min 120 W/m 16,1 km/h (3 Bft) 96,49 %
26.02.2023 09:45 1,1 C 3,3 C -2,8 C 79 % 1023,4 hPa 0,0 l/m 0 min 0 min 130 W/m 19,3 km/h (3 Bft) 97,37 %
26.02.2023 09:50 1,2 C 2,8 C -2,8 C 78 % 1023,5 hPa 0,0 l/m 5 min 0 min 169 W/m 12,9 km/h (3 Bft) 88,89 %
26.02.2023 09:52 1,3 C 3,3 C -2,8 C 78 % 1023,5 hPa 0,0 l/m 2 min 0 min 285 W/m 12,9 km/h (3 Bft) 96,00 %
26.02.2023 09:54 1,4 C 3,3 C -2,8 C 78 % 1023,5 hPa 0,0 l/m 2 min 0 min 231 W/m 12,9 km/h (3 Bft) 95,74 %
26.02.2023 09:56 1,4 C 3,9 C -2,8 C 78 % 1023,5 hPa 0,0 l/m 2 min 0 min 241 W/m 19,3 km/h (3 Bft) 100,00 %
26.02.2023 09:58 1,5 C 3,9 C -2,8 C 78 % 1023,6 hPa 0,0 l/m 2 min 0 min 259 W/m 22,5 km/h (4 Bft) 100,00 %
26.02.2023 10:00 1,6 C 3,9 C -2,8 C 77 % 1023,6 hPa 0,0 l/m 2 min 0 min 303 W/m 12,9 km/h (3 Bft) 100,00 %
26.02.2023 10:02 1,6 C 4,4 C -2,8 C 77 % 1023,6 hPa 0,0 l/m 2 min 0 min 335 W/m 19,3 km/h (3 Bft) 97,83 %
26.02.2023 10:04 1,7 C 5,0 C -2,2 C 77 % 1023,6 hPa 0,0 l/m 2 min 0 min 276 W/m 16,1 km/h (3 Bft) 100,00 %
26.02.2023 10:06 1,7 C 6,7 C -2,2 C 77 % 1023,7 hPa 0,0 l/m 0 min 0 min 152 W/m 12,9 km/h (3 Bft) 97,87 %
26.02.2023 10:08 1,8 C 7,2 C -2,2 C 77 % 1023,7 hPa 0,0 l/m 2 min 0 min 205 W/m 19,3 km/h (3 Bft) 97,87 %
26.02.2023 10:10 1,9 C 7,2 C -2,2 C 76 % 1023,7 hPa 0,0 l/m 2 min 0 min 256 W/m 32,2 km/h (5 Bft) 100,00 %
26.02.2023 10:12 1,9 C 6,7 C -2,2 C 76 % 1023,7 hPa 0,0 l/m 0 min 0 min 62 W/m 19,3 km/h (3 Bft) 97,87 %
26.02.2023 10:14 2,0 C 7,8 C -2,2 C 75 % 1023,8 hPa 0,0 l/m 0 min 0 min 113 W/m 12,9 km/h (3 Bft) 100,00 %
26.02.2023 10:16 2,1 C 8,9 C -2,2 C 75 % 1023,8 hPa 0,0 l/m 2 min 0 min 276 W/m 22,5 km/h (4 Bft) 100,00 %
26.02.2023 10:18 2,1 C 8,9 C -1,7 C 75 % 1023,9 hPa 0,0 l/m 2 min 0 min 360 W/m 16,1 km/h (3 Bft) 100,00 %
26.02.2023 10:20 2,2 C 8,9 C -1,7 C 74 % 1023,8 hPa 0,0 l/m 2 min 0 min 351 W/m 22,5 km/h (4 Bft) 100,00 %
26.02.2023 10:22 2,3 C 8,3 C -2,2 C 74 % 1023,9 hPa 0,0 l/m 2 min 0 min 372 W/m 16,1 km/h (3 Bft) 100,00 %
26.02.2023 10:24 2,3 C 8,3 C -1,7 C 73 % 1023,9 hPa 0,0 l/m 2 min 0 min 356 W/m 25,7 km/h (4 Bft) 100,00 %
26.02.2023 10:26 2,3 C 10,0 C -1,7 C 72 % 1023,9 hPa 0,0 l/m 2 min 0 min 418 W/m 19,3 km/h (3 Bft) 100,00 %
26.02.2023 10:28 2,4 C 11,1 C -1,7 C 73 % 1023,9 hPa 0,0 l/m 2 min 0 min 433 W/m 6,4 km/h (2 Bft) 100,00 %
26.02.2023 10:30 2,6 C 12,2 C -1,1 C 73 % 1023,9 hPa 0,0 l/m 2 min 0 min 472 W/m 9,7 km/h (2 Bft) 97,83 %
26.02.2023 10:32 2,8 C 12,2 C -1,1 C 71 % 1023,9 hPa 0,0 l/m 2 min 0 min 483 W/m 16,1 km/h (3 Bft) 97,87 %
26.02.2023 10:34 2,9 C 10,6 C -1,1 C 71 % 1024,0 hPa 0,0 l/m 2 min 0 min 486 W/m 19,3 km/h (3 Bft) 100,00 %
26.02.2023 10:36 2,9 C 8,3 C -1,1 C 70 % 1024,0 hPa 0,0 l/m 2 min 0 min 483 W/m 29,0 km/h (5 Bft) 97,87 %
26.02.2023 10:38 2,9 C 7,2 C -1,1 C 70 % 1024,1 hPa 0,0 l/m 2 min 0 min 281 W/m 19,3 km/h (3 Bft) 100,00 %
26.02.2023 10:40 2,8 C 7,2 C -1,1 C 70 % 1024,0 hPa 0,0 l/m 2 min 0 min 214 W/m 22,5 km/h (4 Bft) 93,62 %
26.02.2023 10:42 2,8 C 6,7 C -1,7 C 70 % 1024,0 hPa 0,0 l/m 0 min 0 min 136 W/m 25,7 km/h (4 Bft) 100,00 %
26.02.2023 10:44 2,8 C 7,8 C -1,1 C 70 % 1024,1 hPa 0,0 l/m 0 min 0 min 93 W/m 25,7 km/h (4 Bft) 97,83 %
26.02.2023 10:46 2,8 C 8,9 C -1,1 C 70 % 1024,1 hPa 0,0 l/m 2 min 0 min 226 W/m 19,3 km/h (3 Bft) 100,00 %
26.02.2023 10:48 2,9 C 9,4 C -0,6 C 70 % 1024,2 hPa 0,0 l/m 2 min 0 min 372 W/m 16,1 km/h (3 Bft) 100,00 %
26.02.2023 10:50 2,9 C 7,8 C -1,1 C 70 % 1024,2 hPa 0,0 l/m 2 min 0 min 376 W/m 16,1 km/h (3 Bft) 97,87 %
26.02.2023 10:52 2,9 C 7,2 C -1,1 C 69 % 1024,2 hPa 0,0 l/m 0 min 0 min 149 W/m 19,3 km/h (3 Bft) 100,00 %
26.02.2023 10:54 2,9 C 7,2 C -1,1 C 69 % 1024,2 hPa 0,0 l/m 0 min 0 min 172 W/m 16,1 km/h (3 Bft) 97,87 %
26.02.2023 10:56 2,9 C 8,9 C -0,6 C 69 % 1024,1 hPa 0,0 l/m 2 min 0 min 382 W/m 22,5 km/h (4 Bft) 100,00 %
26.02.2023 10:58 3,0 C 7,8 C -0,6 C 68 % 1024,2 hPa 0,0 l/m 2 min 0 min 372 W/m 25,7 km/h (4 Bft) 97,83 %
26.02.2023 11:00 3,0 C 7,8 C -0,6 C 68 % 1024,3 hPa 0,0 l/m 2 min 0 min 255 W/m 25,7 km/h (4 Bft) 95,74 %
26.02.2023 11:02 3,1 C 7,8 C -0,6 C 68 % 1024,3 hPa 0,0 l/m 0 min 0 min 165 W/m 12,9 km/h (3 Bft) 97,87 %
26.02.2023 11:04 3,1 C 8,3 C -0,6 C 68 % 1024,3 hPa 0,0 l/m 0 min 0 min 143 W/m 9,7 km/h (2 Bft) 95,74 %
26.02.2023 11:06 3,2 C 10,0 C 0,0 C 68 % 1024,4 hPa 0,0 l/m 2 min 0 min 423 W/m 19,3 km/h (3 Bft) 97,87 %
26.02.2023 11:08 3,3 C 10,0 C 0,0 C 68 % 1024,4 hPa 0,0 l/m 2 min 0 min 479 W/m 35,4 km/h (5 Bft) 95,74 %
26.02.2023 11:10 3,3 C 6,7 C -0,6 C 67 % 1024,4 hPa 0,0 l/m 2 min 0 min 303 W/m 32,2 km/h (5 Bft) 97,87 %
26.02.2023 11:12 3,3 C 8,9 C 0,0 C 67 % 1024,4 hPa 0,0 l/m 0 min 0 min 156 W/m 16,1 km/h (3 Bft) 95,65 %
26.02.2023 11:14 3,4 C 10,6 C 0,0 C 68 % 1024,4 hPa 0,0 l/m 2 min 0 min 435 W/m 12,9 km/h (3 Bft) 97,87 %
26.02.2023 11:16 3,5 C 11,1 C 0,0 C 68 % 1024,4 hPa 0,0 l/m 2 min 0 min 526 W/m 16,1 km/h (3 Bft) 97,87 %
26.02.2023 11:18 3,7 C 12,8 C 0,6 C 68 % 1024,4 hPa 0,0 l/m 2 min 0 min 573 W/m 16,1 km/h (3 Bft) 97,87 %
26.02.2023 11:20 3,8 C 13,9 C 1,1 C 67 % 1024,5 hPa 0,0 l/m 2 min 0 min 605 W/m 19,3 km/h (3 Bft) 97,14 %
26.02.2023 11:22 4,1 C 14,4 C 1,1 C 67 % 1024,5 hPa 0,0 l/m 2 min 0 min 619 W/m 22,5 km/h (4 Bft) 97,87 %
26.02.2023 11:24 4,2 C 13,3 C 1,1 C 66 % 1024,6 hPa 0,0 l/m 2 min 0 min 601 W/m 19,3 km/h (3 Bft) 97,87 %
26.02.2023 11:26 4,3 C 14,4 C 1,7 C 66 % 1024,5 hPa 0,0 l/m 2 min 0 min 608 W/m 12,9 km/h (3 Bft) 97,87 %
26.02.2023 11:28 4,3 C 14,4 C 2,8 C 66 % 1024,5 hPa 0,0 l/m 2 min 0 min 639 W/m 19,3 km/h (3 Bft) 95,74 %
26.02.2023 11:30 4,4 C 14,4 C 3,3 C 66 % 1024,6 hPa 0,0 l/m 2 min 0 min 643 W/m 22,5 km/h (4 Bft) 97,83 %
26.02.2023 11:32 4,6 C 15,6 C 3,9 C 65 % 1024,5 hPa 0,0 l/m 2 min 0 min 645 W/m 22,5 km/h (4 Bft) 97,87 %
26.02.2023 11:34 4,7 C 16,1 C 4,4 C 65 % 1024,6 hPa 0,0 l/m 2 min 0 min 652 W/m 16,1 km/h (3 Bft) 100,00 %
26.02.2023 11:36 4,8 C 13,9 C 4,4 C 64 % 1024,5 hPa 0,0 l/m 2 min 0 min 632 W/m 29,0 km/h (5 Bft) 97,87 %
26.02.2023 11:38 4,9 C 13,3 C 4,4 C 64 % 1024,6 hPa 0,0 l/m 2 min 0 min 641 W/m 35,4 km/h (5 Bft) 97,87 %
26.02.2023 11:40 4,9 C 13,3 C 4,4 C 64 % 1024,6 hPa 0,0 l/m 2 min 0 min 638 W/m 25,7 km/h (4 Bft) 100,00 %
26.02.2023 11:42 4,9 C 13,9 C 4,4 C 63 % 1024,6 hPa 0,0 l/m 2 min 0 min 637 W/m 25,7 km/h (4 Bft) 97,83 %
26.02.2023 11:44 5,0 C 14,4 C 3,9 C 64 % 1024,6 hPa 0,0 l/m 2 min 0 min 605 W/m 16,1 km/h (3 Bft) 97,87 %
26.02.2023 11:46 5,0 C 14,4 C 3,3 C 63 % 1024,6 hPa 0,0 l/m 2 min 0 min 545 W/m 19,3 km/h (3 Bft) 100,00 %
26.02.2023 11:48 5,0 C 13,9 C 3,3 C 63 % 1024,6 hPa 0,0 l/m 2 min 0 min 509 W/m 16,1 km/h (3 Bft) 100,00 %
26.02.2023 11:50 5,1 C 13,9 C 3,3 C 64 % 1024,5 hPa 0,0 l/m 2 min 0 min 499 W/m 16,1 km/h (3 Bft) 100,00 %
26.02.2023 11:52 5,1 C 12,8 C 3,3 C 64 % 1024,6 hPa 0,0 l/m 2 min 0 min 494 W/m 25,7 km/h (4 Bft) 100,00 %
26.02.2023 11:54 5,1 C 12,2 C 2,8 C 63 % 1024,6 hPa 0,0 l/m 2 min 0 min 437 W/m 19,3 km/h (3 Bft) 97,87 %
26.02.2023 11:56 5,1 C 10,6 C 2,2 C 63 % 1024,7 hPa 0,0 l/m 2 min 0 min 469 W/m 25,7 km/h (4 Bft) 97,87 %
26.02.2023 11:58 5,0 C 11,1 C 2,2 C 63 % 1024,7 hPa 0,0 l/m 2 min 0 min 444 W/m 22,5 km/h (4 Bft) 100,00 %
26.02.2023 12:00 5,0 C 10,6 C 1,7 C 63 % 1024,7 hPa 0,0 l/m 2 min 0 min 348 W/m 22,5 km/h (4 Bft) 100,00 %
26.02.2023 12:02 5,0 C 10,0 C 1,7 C 63 % 1024,7 hPa 0,0 l/m 2 min 0 min 309 W/m 16,1 km/h (3 Bft) 97,87 %
26.02.2023 12:04 4,9 C 9,4 C 1,7 C 62 % 1024,7 hPa 0,0 l/m 2 min 0 min 313 W/m 19,3 km/h (3 Bft) 100,00 %
26.02.2023 12:07 4,9 C 10,6 C 2,2 C 62 % 1024,8 hPa 0,0 l/m 0 min 0 min 244 W/m 16,1 km/h (3 Bft) 97,44 %
26.02.2023 12:08 4,9 C 11,1 C 2,2 C 63 % 1024,8 hPa 0,0 l/m 0 min 0 min 124 W/m 19,3 km/h (3 Bft) 100,00 %
26.02.2023 12:12 4,8 C 8,9 C 1,7 C 62 % 1024,8 hPa 0,0 l/m 0 min 0 min 91 W/m 19,3 km/h (3 Bft) 95,74 %
26.02.2023 12:14 4,8 C 8,3 C 1,1 C 62 % 1024,8 hPa 0,0 l/m 0 min 0 min 115 W/m 19,3 km/h (3 Bft) 100,00 %
26.02.2023 12:16 4,7 C 7,8 C 1,1 C 62 % 1024,7 hPa 0,0 l/m 0 min 0 min 125 W/m 16,1 km/h (3 Bft) 97,87 %
26.02.2023 12:18 4,7 C 7,2 C 1,1 C 61 % 1024,7 hPa 0,0 l/m 0 min 0 min 118 W/m 22,5 km/h (4 Bft) 100,00 %
26.02.2023 12:20 4,6 C 7,8 C 1,1 C 62 % 1024,7 hPa 0,0 l/m 0 min 0 min 98 W/m 19,3 km/h (3 Bft) 97,87 %
26.02.2023 12:22 4,5 C 7,8 C 1,7 C 62 % 1024,8 hPa 0,0 l/m 0 min 0 min 120 W/m 19,3 km/h (3 Bft) 97,87 %
26.02.2023 12:24 4,5 C 8,9 C 1,7 C 62 % 1024,8 hPa 0,0 l/m 0 min 0 min 169 W/m 22,5 km/h (4 Bft) 97,83 %
26.02.2023 12:26 4,4 C 8,3 C 1,7 C 62 % 1024,8 hPa 0,0 l/m 0 min 0 min 139 W/m 22,5 km/h (4 Bft) 95,74 %
26.02.2023 12:28 4,5 C 8,9 C 1,7 C 62 % 1024,8 hPa 0,0 l/m 0 min 0 min 163 W/m 12,9 km/h (3 Bft) 97,87 %
26.02.2023 12:30 4,5 C 8,3 C 2,2 C 63 % 1024,8 hPa 0,0 l/m 0 min 0 min 180 W/m 16,1 km/h (3 Bft) 100,00 %
26.02.2023 12:32 4,5 C 8,3 C 1,7 C 61 % 1024,8 hPa 0,0 l/m 0 min 0 min 207 W/m 19,3 km/h (3 Bft) 97,87 %
26.02.2023 12:34 4,6 C 8,9 C 2,2 C 62 % 1024,8 hPa 0,0 l/m 0 min 0 min 249 W/m 12,9 km/h (3 Bft) 100,00 %
26.02.2023 12:36 4,5 C 8,3 C 1,7 C 62 % 1024,8 hPa 0,0 l/m 2 min 0 min 263 W/m 16,1 km/h (3 Bft) 93,62 %
26.02.2023 12:38 4,6 C 8,3 C 1,7 C 63 % 1024,8 hPa 0,0 l/m 2 min 0 min 333 W/m 25,7 km/h (4 Bft) 91,30 %
26.02.2023 12:40 4,6 C 7,8 C 1,7 C 63 % 1024,8 hPa 0,0 l/m 2 min 0 min 439 W/m 22,5 km/h (4 Bft) 93,62 %
26.02.2023 12:42 4,7 C 7,8 C 1,1 C 62 % 1024,8 hPa 0,0 l/m 2 min 0 min 461 W/m 22,5 km/h (4 Bft) 97,87 %
26.02.2023 12:44 4,7 C 7,8 C 1,1 C 61 % 1024,9 hPa 0,0 l/m 2 min 0 min 457 W/m 22,5 km/h (4 Bft) 95,74 %
26.02.2023 12:46 4,7 C 8,3 C 1,1 C 60 % 1024,8 hPa 0,0 l/m 2 min 0 min 297 W/m 22,5 km/h (4 Bft) 95,74 %
26.02.2023 12:48 4,7 C 8,3 C 0,6 C 60 % 1024,8 hPa 0,0 l/m 2 min 0 min 283 W/m 22,5 km/h (4 Bft) 97,87 %
26.02.2023 12:50 4,7 C 8,9 C 1,1 C 61 % 1024,7 hPa 0,0 l/m 2 min 0 min 592 W/m 22,5 km/h (4 Bft) 95,74 %
26.02.2023 12:52 4,7 C 9,4 C 1,1 C 61 % 1024,9 hPa 0,0 l/m 2 min 0 min 602 W/m 19,3 km/h (3 Bft) 97,83 %
26.02.2023 12:54 4,7 C 9,4 C 1,1 C 61 % 1024,8 hPa 0,0 l/m 2 min 0 min 604 W/m 16,1 km/h (3 Bft) 97,87 %
26.02.2023 12:56 4,8 C 10,0 C 1,1 C 61 % 1024,8 hPa 0,0 l/m 2 min 0 min 614 W/m 22,5 km/h (4 Bft) 89,36 %
26.02.2023 12:58 4,8 C 11,1 C 1,1 C 61 % 1024,8 hPa 0,0 l/m 2 min 0 min 632 W/m 16,1 km/h (3 Bft) 95,74 %
26.02.2023 13:00 4,9 C 12,2 C 1,1 C 61 % 1024,9 hPa 0,0 l/m 2 min 0 min 647 W/m 32,2 km/h (5 Bft) 97,87 %
26.02.2023 13:02 5,0 C 12,2 C 1,1 C 60 % 1024,7 hPa 0,0 l/m 2 min 0 min 639 W/m 22,5 km/h (4 Bft) 91,49 %
26.02.2023 13:04 5,2 C 15,0 C 1,1 C 61 % 1024,7 hPa 0,0 l/m 2 min 0 min 588 W/m 29,0 km/h (5 Bft) 95,74 %
26.02.2023 13:06 5,2 C 15,0 C 1,1 C 59 % 1024,7 hPa 0,0 l/m 2 min 0 min 585 W/m 25,7 km/h (4 Bft) 98,28 %
26.02.2023 13:08 5,2 C 15,0 C 1,1 C 58 % 1024,8 hPa 0,0 l/m 2 min 0 min 579 W/m 22,5 km/h (4 Bft) 97,14 %
26.02.2023 13:10 5,3 C 13,9 C 1,1 C 59 % 1024,8 hPa 0,0 l/m 2 min 0 min 573 W/m 22,5 km/h (4 Bft) 98,21 %
26.02.2023 13:12 5,3 C 13,9 C 1,1 C 58 % 1024,8 hPa 0,0 l/m 2 min 0 min 572 W/m 32,2 km/h (5 Bft) 93,48 %
26.02.2023 13:14 5,3 C 14,4 C 1,1 C 58 % 1024,8 hPa 0,0 l/m 2 min 0 min 579 W/m 12,9 km/h (3 Bft) 91,49 %
26.02.2023 13:16 5,3 C 15,0 C 1,1 C 57 % 1024,8 hPa 0,0 l/m 2 min 0 min 581 W/m 25,7 km/h (4 Bft) 93,62 %
26.02.2023 13:18 5,3 C 15,6 C 1,1 C 58 % 1024,7 hPa 0,0 l/m 2 min 0 min 582 W/m 16,1 km/h (3 Bft) 95,74 %
26.02.2023 13:20 5,4 C 15,6 C 1,1 C 59 % 1024,7 hPa 0,0 l/m 2 min 0 min 586 W/m 19,3 km/h (3 Bft) 95,74 %
26.02.2023 13:22 5,6 C 16,1 C 1,1 C 58 % 1024,7 hPa 0,0 l/m 2 min 0 min 589 W/m 12,9 km/h (3 Bft) 95,74 %
26.02.2023 13:24 5,6 C 14,4 C 1,1 C 57 % 1024,7 hPa 0,0 l/m 2 min 0 min 584 W/m 22,5 km/h (4 Bft) 93,48 %
26.02.2023 13:26 5,7 C 14,4 C 1,1 C 57 % 1024,7 hPa 0,0 l/m 2 min 0 min 567 W/m 19,3 km/h (3 Bft) 93,62 %
26.02.2023 13:28 5,8 C 15,0 C 1,1 C 58 % 1024,8 hPa 0,0 l/m 2 min 0 min 561 W/m 19,3 km/h (3 Bft) 93,62 %
26.02.2023 13:30 5,9 C 12,8 C 1,1 C 55 % 1024,7 hPa 0,0 l/m 2 min 0 min 561 W/m 38,6 km/h (5 Bft) 95,74 %
26.02.2023 13:32 5,9 C 12,2 C 1,1 C 55 % 1024,8 hPa 0,0 l/m 2 min 0 min 567 W/m 25,7 km/h (4 Bft) 95,74 %
26.02.2023 13:34 5,8 C 12,8 C 1,1 C 56 % 1024,7 hPa 0,0 l/m 2 min 0 min 581 W/m 22,5 km/h (4 Bft) 93,62 %
26.02.2023 13:36 5,7 C 13,3 C 1,7 C 56 % 1024,7 hPa 0,0 l/m 2 min 0 min 602 W/m 22,5 km/h (4 Bft) 95,74 %
26.02.2023 13:38 5,7 C 11,7 C 1,1 C 56 % 1024,8 hPa 0,0 l/m 2 min 0 min 595 W/m 16,1 km/h (3 Bft) 95,74 %
26.02.2023 13:40 5,6 C 10,0 C 1,1 C 56 % 1024,8 hPa 0,0 l/m 2 min 0 min 589 W/m 19,3 km/h (3 Bft) 95,65 %
26.02.2023 13:42 5,3 C 8,3 C 0,6 C 54 % 1024,8 hPa 0,0 l/m 0 min 0 min 105 W/m 16,1 km/h (3 Bft) 93,62 %
26.02.2023 13:44 5,1 C 9,4 C 0,6 C 55 % 1024,8 hPa 0,0 l/m 0 min 0 min 186 W/m 16,1 km/h (3 Bft) 95,74 %
26.02.2023 13:46 5,1 C 10,6 C 0,6 C 56 % 1024,7 hPa 0,0 l/m 2 min 0 min 549 W/m 19,3 km/h (3 Bft) 93,62 %
26.02.2023 13:48 5,2 C 10,6 C 0,6 C 56 % 1024,8 hPa 0,0 l/m 2 min 0 min 547 W/m 19,3 km/h (3 Bft) 95,74 %
26.02.2023 13:50 5,3 C 11,1 C 0,6 C 56 % 1024,8 hPa 0,0 l/m 2 min 0 min 551 W/m 22,5 km/h (4 Bft) 95,74 %
26.02.2023 13:52 5,4 C 11,7 C 1,1 C 56 % 1024,7 hPa 0,0 l/m 2 min 0 min 559 W/m 16,1 km/h (3 Bft) 95,74 %
26.02.2023 13:54 5,6 C 11,1 C 1,1 C 56 % 1024,7 hPa 0,0 l/m 2 min 0 min 555 W/m 22,5 km/h (4 Bft) 95,65 %
26.02.2023 13:56 5,6 C 11,1 C 1,1 C 56 % 1024,8 hPa 0,0 l/m 2 min 0 min 558 W/m 16,1 km/h (3 Bft) 95,74 %
26.02.2023 13:58 5,7 C 10,6 C 1,1 C 56 % 1024,7 hPa 0,0 l/m 2 min 0 min 581 W/m 25,7 km/h (4 Bft) 93,62 %
26.02.2023 14:00 5,8 C 9,4 C 1,1 C 56 % 1024,8 hPa 0,0 l/m 2 min 0 min 564 W/m 19,3 km/h (3 Bft) 95,74 %
26.02.2023 14:02 5,8 C 9,4 C 1,1 C 56 % 1024,8 hPa 0,0 l/m 2 min 0 min 564 W/m 12,9 km/h (3 Bft) 95,74 %
26.02.2023 14:04 5,8 C 10,0 C 1,1 C 55 % 1024,8 hPa 0,0 l/m 2 min 0 min 561 W/m 16,1 km/h (3 Bft) 93,62 %
26.02.2023 14:06 5,8 C 11,1 C 1,7 C 56 % 1024,8 hPa 0,0 l/m 2 min 0 min 602 W/m 19,3 km/h (3 Bft) 95,74 %
26.02.2023 14:08 5,8 C 10,6 C 1,1 C 55 % 1024,8 hPa 0,0 l/m 2 min 0 min 591 W/m 25,7 km/h (4 Bft) 93,48 %
26.02.2023 14:10 5,8 C 8,9 C 1,1 C 54 % 1024,8 hPa 0,0 l/m 2 min 0 min 591 W/m 16,1 km/h (3 Bft) 93,62 %
26.02.2023 14:12 5,7 C 7,2 C 0,6 C 54 % 1024,8 hPa 0,0 l/m 2 min 0 min 301 W/m 19,3 km/h (3 Bft) 97,87 %
26.02.2023 14:14 5,6 C 6,7 C 0,0 C 54 % 1024,8 hPa 0,0 l/m 0 min 0 min 77 W/m 22,5 km/h (4 Bft) 97,87 %
26.02.2023 14:16 5,4 C 7,2 C 0,6 C 54 % 1024,7 hPa 0,0 l/m 0 min 0 min 77 W/m 19,3 km/h (3 Bft) 97,87 %
26.02.2023 14:18 5,3 C 7,8 C 0,6 C 55 % 1024,8 hPa 0,0 l/m 2 min 0 min 532 W/m 25,7 km/h (4 Bft) 95,74 %
26.02.2023 14:20 5,3 C 8,3 C 0,6 C 55 % 1024,7 hPa 0,0 l/m 2 min 0 min 525 W/m 32,2 km/h (5 Bft) 97,87 %
26.02.2023 14:22 5,3 C 8,9 C 0,6 C 54 % 1024,7 hPa 0,0 l/m 2 min 0 min 515 W/m 25,7 km/h (4 Bft) 95,65 %
26.02.2023 14:24 5,3 C 8,9 C 0,6 C 54 % 1024,7 hPa 0,0 l/m 2 min 0 min 512 W/m 38,6 km/h (5 Bft) 97,87 %
26.02.2023 14:26 5,3 C 7,8 C 0,6 C 54 % 1024,8 hPa 0,0 l/m 2 min 0 min 513 W/m 32,2 km/h (5 Bft) 95,74 %
26.02.2023 14:28 5,3 C 8,3 C 0,6 C 55 % 1024,7 hPa 0,0 l/m 2 min 0 min 502 W/m 16,1 km/h (3 Bft) 100,00 %
26.02.2023 14:30 5,4 C 8,9 C 0,6 C 55 % 1024,8 hPa 0,0 l/m 2 min 0 min 494 W/m 9,7 km/h (2 Bft) 97,87 %
26.02.2023 14:32 5,5 C 8,3 C 0,6 C 55 % 1024,8 hPa 0,0 l/m 2 min 0 min 492 W/m 32,2 km/h (5 Bft) 97,87 %
26.02.2023 14:34 5,5 C 8,3 C 0,6 C 55 % 1024,7 hPa 0,0 l/m 2 min 0 min 490 W/m 25,7 km/h (4 Bft) 97,87 %
26.02.2023 14:36 5,5 C 8,3 C 0,6 C 54 % 1024,7 hPa 0,0 l/m 2 min 0 min 492 W/m 19,3 km/h (3 Bft) 97,83 %
26.02.2023 14:38 5,6 C 8,3 C 1,1 C 55 % 1024,7 hPa 0,0 l/m 2 min 0 min 503 W/m 22,5 km/h (4 Bft) 97,87 %
26.02.2023 14:40 5,5 C 7,8 C 0,6 C 55 % 1024,7 hPa 0,0 l/m 2 min 0 min 495 W/m 22,5 km/h (4 Bft) 95,74 %
26.02.2023 14:42 5,4 C 6,1 C 0,6 C 56 % 1024,8 hPa 0,0 l/m 0 min 0 min 74 W/m 19,3 km/h (3 Bft) 95,74 %
26.02.2023 14:44 5,3 C 7,8 C 0,6 C 55 % 1024,8 hPa 0,0 l/m 0 min 0 min 203 W/m 19,3 km/h (3 Bft) 97,87 %
26.02.2023 14:46 5,2 C 8,3 C 0,6 C 57 % 1024,7 hPa 0,0 l/m 2 min 0 min 467 W/m 32,2 km/h (5 Bft) 97,87 %
26.02.2023 14:48 5,1 C 7,8 C 0,6 C 56 % 1024,7 hPa 0,0 l/m 2 min 0 min 456 W/m 19,3 km/h (3 Bft) 95,74 %
26.02.2023 14:50 5,1 C 8,3 C 0,6 C 56 % 1024,6 hPa 0,0 l/m 2 min 0 min 454 W/m 25,7 km/h (4 Bft) 97,83 %
26.02.2023 14:52 5,1 C 9,4 C 0,6 C 56 % 1024,7 hPa 0,0 l/m 2 min 0 min 453 W/m 19,3 km/h (3 Bft) 97,87 %
26.02.2023 14:54 5,1 C 8,9 C 0,6 C 55 % 1024,7 hPa 0,0 l/m 2 min 0 min 446 W/m 25,7 km/h (4 Bft) 95,74 %
26.02.2023 14:56 5,2 C 9,4 C 1,1 C 56 % 1024,7 hPa 0,0 l/m 2 min 0 min 445 W/m 12,9 km/h (3 Bft) 97,87 %
26.02.2023 14:58 5,3 C 8,9 C 1,1 C 55 % 1024,7 hPa 0,0 l/m 2 min 0 min 442 W/m 19,3 km/h (3 Bft) 97,87 %
26.02.2023 15:00 5,3 C 9,4 C 1,1 C 55 % 1024,7 hPa 0,0 l/m 2 min 0 min 431 W/m 9,7 km/h (2 Bft) 97,87 %
26.02.2023 15:02 5,4 C 8,9 C 1,1 C 56 % 1024,7 hPa 0,0 l/m 2 min 0 min 434 W/m 9,7 km/h (2 Bft) 97,87 %
26.02.2023 15:04 5,4 C 8,3 C 1,1 C 56 % 1024,7 hPa 0,0 l/m 2 min 0 min 442 W/m 22,5 km/h (4 Bft) 97,83 %
26.02.2023 15:06 5,6 C 8,9 C 1,1 C 56 % 1024,7 hPa 0,0 l/m 2 min 0 min 440 W/m 16,1 km/h (3 Bft) 97,87 %
26.02.2023 15:08 5,6 C 8,3 C 1,1 C 55 % 1024,7 hPa 0,0 l/m 2 min 0 min 437 W/m 12,9 km/h (3 Bft) 97,87 %
26.02.2023 15:10 5,6 C 8,3 C 1,1 C 54 % 1024,7 hPa 0,0 l/m 2 min 0 min 436 W/m 22,5 km/h (4 Bft) 95,74 %
26.02.2023 15:12 5,6 C 8,3 C 1,1 C 53 % 1024,6 hPa 0,0 l/m 2 min 0 min 426 W/m 25,7 km/h (4 Bft) 97,87 %
26.02.2023 15:14 5,6 C 8,3 C 1,1 C 53 % 1024,6 hPa 0,0 l/m 2 min 0 min 421 W/m 25,7 km/h (4 Bft) 97,87 %
26.02.2023 15:16 5,7 C 7,2 C 1,1 C 53 % 1024,7 hPa 0,0 l/m 2 min 0 min 410 W/m 19,3 km/h (3 Bft) 97,87 %
26.02.2023 15:18 5,6 C 6,7 C 1,1 C 53 % 1024,7 hPa 0,0 l/m 2 min 0 min 403 W/m 32,2 km/h (5 Bft) 97,83 %
26.02.2023 15:20 5,6 C 7,2 C 1,1 C 53 % 1024,7 hPa 0,0 l/m 2 min 0 min 391 W/m 35,4 km/h (5 Bft) 95,74 %
26.02.2023 15:22 5,4 C 7,8 C 0,6 C 53 % 1024,8 hPa 0,0 l/m 2 min 0 min 389 W/m 19,3 km/h (3 Bft) 97,87 %
26.02.2023 15:24 5,4 C 7,8 C 0,6 C 54 % 1024,8 hPa 0,0 l/m 2 min 0 min 387 W/m 22,5 km/h (4 Bft) 97,87 %
26.02.2023 15:26 5,4 C 7,8 C 0,6 C 54 % 1024,7 hPa 0,0 l/m 2 min 0 min 382 W/m 22,5 km/h (4 Bft) 95,74 %
26.02.2023 15:28 5,3 C 7,2 C 0,6 C 53 % 1024,6 hPa 0,0 l/m 2 min 0 min 378 W/m 16,1 km/h (3 Bft) 97,87 %
26.02.2023 15:30 5,3 C 6,7 C 0,6 C 54 % 1024,6 hPa 0,0 l/m 2 min 0 min 371 W/m 29,0 km/h (5 Bft) 95,74 %
26.02.2023 15:32 5,3 C 6,7 C 0,6 C 54 % 1024,6 hPa 0,0 l/m 2 min 0 min 368 W/m 22,5 km/h (4 Bft) 97,83 %
26.02.2023 15:34 5,3 C 6,7 C 0,6 C 54 % 1024,6 hPa 0,0 l/m 2 min 0 min 362 W/m 35,4 km/h (5 Bft) 97,87 %
26.02.2023 15:36 5,3 C 6,1 C 0,6 C 54 % 1024,7 hPa 0,0 l/m 2 min 0 min 356 W/m 25,7 km/h (4 Bft) 95,74 %
26.02.2023 15:38 5,2 C 7,2 C 0,0 C 55 % 1024,7 hPa 0,0 l/m 2 min 0 min 292 W/m 16,1 km/h (3 Bft) 97,87 %
26.02.2023 15:40 5,2 C 7,2 C 0,0 C 54 % 1024,7 hPa 0,0 l/m 2 min 0 min 295 W/m 32,2 km/h (5 Bft) 97,87 %
26.02.2023 15:42 5,2 C 7,8 C 0,0 C 55 % 1024,7 hPa 0,0 l/m 2 min 0 min 323 W/m 16,1 km/h (3 Bft) 97,87 %
26.02.2023 15:44 5,1 C 7,8 C 0,0 C 55 % 1024,8 hPa 0,0 l/m 2 min 0 min 339 W/m 35,4 km/h (5 Bft) 97,87 %
26.02.2023 15:46 5,1 C 7,8 C 0,0 C 55 % 1024,7 hPa 0,0 l/m 2 min 0 min 334 W/m 22,5 km/h (4 Bft) 97,83 %
26.02.2023 15:48 5,1 C 7,8 C 0,0 C 56 % 1024,7 hPa 0,0 l/m 2 min 0 min 331 W/m 16,1 km/h (3 Bft) 97,87 %
26.02.2023 15:50 5,1 C 7,8 C 0,0 C 55 % 1024,7 hPa 0,0 l/m 2 min 0 min 329 W/m 22,5 km/h (4 Bft) 97,87 %
26.02.2023 15:52 5,1 C 7,8 C 0,0 C 56 % 1024,7 hPa 0,0 l/m 2 min 0 min 324 W/m 25,7 km/h (4 Bft) 97,87 %
26.02.2023 15:54 5,1 C 7,8 C 0,0 C 55 % 1024,7 hPa 0,0 l/m 2 min 0 min 318 W/m 12,9 km/h (3 Bft) 97,87 %
26.02.2023 15:56 5,1 C 7,8 C 0,0 C 57 % 1024,7 hPa 0,0 l/m 2 min 0 min 310 W/m 22,5 km/h (4 Bft) 97,87 %
26.02.2023 15:58 5,0 C 7,2 C 0,0 C 57 % 1024,7 hPa 0,0 l/m 2 min 0 min 304 W/m 32,2 km/h (5 Bft) 97,87 %
26.02.2023 16:00 4,9 C 7,8 C 0,0 C 56 % 1024,7 hPa 0,0 l/m 2 min 0 min 298 W/m 22,5 km/h (4 Bft) 100,00 %
26.02.2023 16:02 4,9 C 7,8 C 0,0 C 57 % 1024,6 hPa 0,0 l/m 2 min 0 min 252 W/m 19,3 km/h (3 Bft) 100,00 %
26.02.2023 16:04 4,9 C 6,7 C 0,0 C 57 % 1024,7 hPa 0,0 l/m 2 min 0 min 263 W/m 16,1 km/h (3 Bft) 97,87 %
26.02.2023 16:06 4,9 C 5,6 C 0,0 C 57 % 1024,8 hPa 0,0 l/m 2 min 0 min 279 W/m 16,1 km/h (3 Bft) 97,87 %
26.02.2023 16:08 4,9 C 5,0 C 0,0 C 57 % 1024,8 hPa 0,0 l/m 2 min 0 min 276 W/m 16,1 km/h (3 Bft) 95,74 %
26.02.2023 16:10 4,9 C 4,4 C 0,0 C 56 % 1024,8 hPa 0,0 l/m 2 min 0 min 267 W/m 19,3 km/h (3 Bft) 95,74 %
26.02.2023 16:12 4,8 C 4,4 C 0,0 C 55 % 1024,8 hPa 0,0 l/m 2 min 0 min 265 W/m 19,3 km/h (3 Bft) 97,83 %
26.02.2023 16:14 4,8 C 4,4 C 0,0 C 55 % 1024,8 hPa 0,0 l/m 2 min 0 min 257 W/m 9,7 km/h (2 Bft) 95,74 %
26.02.2023 16:16 4,8 C 4,4 C 0,0 C 56 % 1024,8 hPa 0,0 l/m 2 min 0 min 254 W/m 12,9 km/h (3 Bft) 93,62 %
26.02.2023 16:18 4,7 C 3,9 C 0,0 C 57 % 1024,8 hPa 0,0 l/m 2 min 0 min 245 W/m 25,7 km/h (4 Bft) 95,74 %
26.02.2023 16:20 4,6 C 3,9 C 0,0 C 57 % 1024,8 hPa 0,0 l/m 2 min 0 min 238 W/m 12,9 km/h (3 Bft) 97,87 %
26.02.2023 16:22 4,6 C 3,9 C -0,6 C 57 % 1024,9 hPa 0,0 l/m 2 min 0 min 233 W/m 9,7 km/h (2 Bft) 95,74 %
26.02.2023 16:24 4,4 C 3,9 C -0,6 C 57 % 1024,8 hPa 0,0 l/m 2 min 0 min 226 W/m 12,9 km/h (3 Bft) 80,85 %
26.02.2023 16:26 4,4 C 3,9 C -0,6 C 58 % 1024,8 hPa 0,0 l/m 2 min 0 min 218 W/m 22,5 km/h (4 Bft) 64,29 %
26.02.2023 16:28 4,3 C 3,9 C -0,6 C 58 % 1024,8 hPa 0,0 l/m 2 min 0 min 209 W/m 19,3 km/h (3 Bft) 95,74 %
26.02.2023 16:30 4,3 C 3,9 C -0,6 C 57 % 1024,9 hPa 0,0 l/m 2 min 0 min 164 W/m 22,5 km/h (4 Bft) 95,74 %
26.02.2023 16:32 4,3 C 3,9 C -0,6 C 57 % 1024,9 hPa 0,0 l/m 2 min 0 min 142 W/m 22,5 km/h (4 Bft) 95,74 %
26.02.2023 16:34 4,3 C 3,9 C -0,6 C 57 % 1024,9 hPa 0,0 l/m 2 min 0 min 187 W/m 9,7 km/h (2 Bft) 95,74 %
26.02.2023 16:36 4,3 C 3,9 C -0,6 C 58 % 1025,0 hPa 0,0 l/m 2 min 0 min 171 W/m 22,5 km/h (4 Bft) 95,74 %
26.02.2023 16:38 4,2 C 3,9 C -0,6 C 57 % 1024,9 hPa 0,0 l/m 0 min 0 min 81 W/m 16,1 km/h (3 Bft) 93,62 %
26.02.2023 16:40 4,2 C 3,9 C -0,6 C 58 % 1025,0 hPa 0,0 l/m 0 min 0 min 43 W/m 19,3 km/h (3 Bft) 95,74 %
26.02.2023 16:42 4,2 C 3,9 C -0,6 C 58 % 1025,0 hPa 0,0 l/m 0 min 0 min 35 W/m 16,1 km/h (3 Bft) 95,65 %
26.02.2023 16:44 4,2 C 3,9 C -0,6 C 58 % 1025,0 hPa 0,0 l/m 0 min 0 min 34 W/m 16,1 km/h (3 Bft) 97,87 %
26.02.2023 16:46 4,2 C 3,3 C -0,6 C 59 % 1025,0 hPa 0,0 l/m 0 min 0 min 33 W/m 16,1 km/h (3 Bft) 93,62 %
26.02.2023 16:48 4,1 C 3,3 C -0,6 C 58 % 1025,0 hPa 0,0 l/m 0 min 0 min 33 W/m 12,9 km/h (3 Bft) 97,87 %
26.02.2023 16:50 4,1 C 3,3 C -0,6 C 58 % 1025,0 hPa 0,0 l/m 0 min 0 min 33 W/m 19,3 km/h (3 Bft) 100,00 %
26.02.2023 16:52 4,1 C 3,9 C -0,6 C 58 % 1025,0 hPa 0,0 l/m 0 min 0 min 32 W/m 19,3 km/h (3 Bft) 100,00 %
26.02.2023 16:54 4,1 C 3,3 C -0,6 C 58 % 1025,0 hPa 0,0 l/m 0 min 0 min 32 W/m 12,9 km/h (3 Bft) 100,00 %
26.02.2023 16:59 4,1 C 3,3 C -0,6 C 58 % 1025,0 hPa 0,0 l/m 0 min 0 min 31 W/m 22,5 km/h (4 Bft) 98,18 %
26.02.2023 17:00 4,0 C 3,3 C -0,6 C 58 % 1025,0 hPa 0,0 l/m 0 min 0 min 30 W/m 22,5 km/h (4 Bft) 100,00 %
26.02.2023 17:02 4,0 C 3,3 C -0,6 C 59 % 1025,1 hPa 0,0 l/m 0 min 0 min 30 W/m 22,5 km/h (4 Bft) 100,00 %
26.02.2023 17:04 3,9 C 3,3 C -0,6 C 59 % 1025,1 hPa 0,0 l/m 0 min 0 min 29 W/m 19,3 km/h (3 Bft) 100,00 %
26.02.2023 17:06 3,9 C 3,3 C -0,6 C 58 % 1025,1 hPa 0,0 l/m 0 min 0 min 28 W/m 12,9 km/h (3 Bft) 100,00 %
26.02.2023 17:08 3,9 C 3,3 C -0,6 C 59 % 1025,1 hPa 0,0 l/m 0 min 0 min 28 W/m 12,9 km/h (3 Bft) 100,00 %
26.02.2023 17:10 3,9 C 3,3 C -0,6 C 60 % 1025,0 hPa 0,0 l/m 0 min 0 min 26 W/m 16,1 km/h (3 Bft) 100,00 %
26.02.2023 17:12 3,9 C 3,3 C -0,6 C 60 % 1025,1 hPa 0,0 l/m 0 min 0 min 26 W/m 19,3 km/h (3 Bft) 97,87 %
26.02.2023 17:14 3,8 C 3,3 C -0,6 C 61 % 1025,1 hPa 0,0 l/m 0 min 0 min 26 W/m 12,9 km/h (3 Bft) 100,00 %
26.02.2023 17:16 3,8 C 3,3 C -0,6 C 61 % 1025,1 hPa 0,0 l/m 0 min 0 min 27 W/m 9,7 km/h (2 Bft) 100,00 %
26.02.2023 17:18 3,8 C 3,3 C -0,6 C 60 % 1025,1 hPa 0,0 l/m 0 min 0 min 30 W/m 19,3 km/h (3 Bft) 100,00 %
26.02.2023 17:20 3,8 C 3,3 C -0,6 C 60 % 1025,1 hPa 0,0 l/m 0 min 0 min 33 W/m 22,5 km/h (4 Bft) 97,87 %
26.02.2023 17:22 3,8 C 3,3 C -0,6 C 60 % 1025,1 hPa 0,0 l/m 0 min 0 min 31 W/m 19,3 km/h (3 Bft) 100,00 %
26.02.2023 17:24 3,8 C 3,3 C -0,6 C 60 % 1025,2 hPa 0,0 l/m 0 min 0 min 27 W/m 12,9 km/h (3 Bft) 100,00 %
26.02.2023 17:26 3,7 C 2,8 C -0,6 C 60 % 1025,2 hPa 0,0 l/m 0 min 0 min 22 W/m 16,1 km/h (3 Bft) 100,00 %
26.02.2023 17:28 3,7 C 2,8 C -1,1 C 60 % 1025,2 hPa 0,0 l/m 0 min 0 min 21 W/m 6,4 km/h (2 Bft) 100,00 %
26.02.2023 17:30 3,7 C 2,8 C -1,1 C 60 % 1025,2 hPa 0,0 l/m 0 min 0 min 20 W/m 19,3 km/h (3 Bft) 100,00 %
26.02.2023 17:32 3,7 C 2,8 C -1,1 C 60 % 1025,2 hPa 0,0 l/m 0 min 0 min 19 W/m 25,7 km/h (4 Bft) 97,87 %
26.02.2023 17:34 3,7 C 2,8 C -1,1 C 60 % 1025,3 hPa 0,0 l/m 0 min 0 min 19 W/m 22,5 km/h (4 Bft) 100,00 %
26.02.2023 17:36 3,7 C 3,3 C -0,6 C 59 % 1025,3 hPa 0,0 l/m 0 min 0 min 18 W/m 22,5 km/h (4 Bft) 100,00 %
26.02.2023 17:38 3,7 C 2,8 C -1,1 C 59 % 1025,3 hPa 0,0 l/m 0 min 0 min 18 W/m 12,9 km/h (3 Bft) 97,87 %
26.02.2023 17:40 3,7 C 2,8 C -1,1 C 59 % 1025,3 hPa 0,0 l/m 0 min 0 min 16 W/m 19,3 km/h (3 Bft) 100,00 %
26.02.2023 17:42 3,6 C 2,8 C -1,1 C 59 % 1025,3 hPa 0,0 l/m 0 min 0 min 16 W/m 16,1 km/h (3 Bft) 100,00 %
26.02.2023 17:44 3,6 C 2,8 C -0,6 C 59 % 1025,4 hPa 0,0 l/m 0 min 0 min 15 W/m 16,1 km/h (3 Bft) 100,00 %
26.02.2023 17:46 3,6 C 2,8 C -1,1 C 59 % 1025,4 hPa 0,0 l/m 0 min 0 min 14 W/m 16,1 km/h (3 Bft) 100,00 %
26.02.2023 17:48 3,6 C 2,8 C -1,1 C 59 % 1025,4 hPa 0,0 l/m 0 min 0 min 14 W/m 22,5 km/h (4 Bft) 97,87 %
26.02.2023 17:50 3,6 C 2,8 C -1,1 C 59 % 1025,4 hPa 0,0 l/m 0 min 0 min 12 W/m 19,3 km/h (3 Bft) 94,55 %
26.02.2023 17:52 3,6 C 2,8 C -1,1 C 60 % 1025,4 hPa 0,0 l/m 0 min 0 min 12 W/m 16,1 km/h (3 Bft) 91,84 %
26.02.2023 17:54 3,5 C 2,8 C -1,1 C 60 % 1025,5 hPa 0,0 l/m 0 min 0 min 11 W/m 12,9 km/h (3 Bft) 95,74 %
26.02.2023 17:56 3,5 C 2,8 C -1,1 C 60 % 1025,4 hPa 0,0 l/m 0 min 0 min 11 W/m 19,3 km/h (3 Bft) 95,74 %
26.02.2023 17:58 3,4 C 2,8 C -1,1 C 60 % 1025,4 hPa 0,0 l/m 0 min 0 min 10 W/m 12,9 km/h (3 Bft) 95,74 %
26.02.2023 18:00 3,4 C 2,8 C -1,1 C 60 % 1025,5 hPa 0,0 l/m 0 min 0 min 9 W/m 16,1 km/h (3 Bft) 95,74 %
26.02.2023 18:02 3,4 C 2,2 C -1,1 C 60 % 1025,5 hPa 0,0 l/m 0 min 0 min 8 W/m 9,7 km/h (2 Bft) 93,62 %
26.02.2023 18:04 3,3 C 2,2 C -1,1 C 61 % 1025,5 hPa 0,0 l/m 0 min 0 min 7 W/m 16,1 km/h (3 Bft) 95,65 %
26.02.2023 18:07 3,3 C 2,2 C -1,7 C 61 % 1025,6 hPa 0,0 l/m 0 min 0 min 6 W/m 19,3 km/h (3 Bft) 94,44 %
26.02.2023 18:08 3,3 C 2,2 C -1,7 C 61 % 1025,6 hPa 0,0 l/m 0 min 0 min 5 W/m 9,7 km/h (2 Bft) 100,00 %
26.02.2023 18:12 3,2 C 2,2 C -1,7 C 61 % 1025,7 hPa 0,0 l/m 0 min 0 min 2 W/m 16,1 km/h (3 Bft) 96,43 %
26.02.2023 18:14 3,2 C 2,2 C -1,7 C 61 % 1025,6 hPa 0,0 l/m 0 min 0 min 0 W/m 16,1 km/h (3 Bft) 95,74 %
26.02.2023 18:16 3,1 C 2,2 C -1,7 C 62 % 1025,7 hPa 0,0 l/m 0 min 0 min 0 W/m 12,9 km/h (3 Bft) 97,87 %
26.02.2023 18:18 3,1 C 2,2 C -1,7 C 62 % 1025,7 hPa 0,0 l/m 0 min 0 min 0 W/m 12,9 km/h (3 Bft) 97,87 %
26.02.2023 18:20 3,1 C 2,2 C -1,7 C 62 % 1025,7 hPa 0,0 l/m 0 min 0 min 0 W/m 6,4 km/h (2 Bft) 95,74 %
26.02.2023 18:22 3,1 C 1,7 C -1,7 C 62 % 1025,8 hPa 0,0 l/m 0 min 0 min 0 W/m 12,9 km/h (3 Bft) 97,83 %
26.02.2023 18:24 3,0 C 1,7 C -1,7 C 63 % 1025,8 hPa 0,0 l/m 0 min 0 min 0 W/m 9,7 km/h (2 Bft) 95,74 %
26.02.2023 18:26 2,9 C 1,7 C -1,7 C 63 % 1025,8 hPa 0,0 l/m 0 min 0 min 0 W/m 9,7 km/h (2 Bft) 100,00 %
26.02.2023 18:28 2,9 C 1,7 C -1,7 C 63 % 1025,9 hPa 0,0 l/m 0 min 0 min 0 W/m 9,7 km/h (2 Bft) 82,98 %
26.02.2023 18:30 2,8 C 1,7 C -1,7 C 63 % 1025,9 hPa 0,0 l/m 0 min 0 min 0 W/m 9,7 km/h (2 Bft) 69,57 %
26.02.2023 18:32 2,8 C 1,7 C -1,7 C 63 % 1025,9 hPa 0,0 l/m 0 min 0 min 0 W/m 12,9 km/h (3 Bft) 100,00 %
26.02.2023 18:34 2,8 C 1,7 C -1,7 C 63 % 1025,9 hPa 0,0 l/m 0 min 0 min 0 W/m 3,2 km/h (1 Bft) 100,00 %
26.02.2023 18:36 2,8 C 1,7 C -1,7 C 63 % 1025,9 hPa 0,0 l/m 0 min 0 min 0 W/m 12,9 km/h (3 Bft) 100,00 %
26.02.2023 18:38 2,7 C 1,7 C -1,7 C 64 % 1026,0 hPa 0,0 l/m 0 min 0 min 0 W/m 6,4 km/h (2 Bft) 100,00 %
26.02.2023 18:40 2,7 C 1,7 C -2,2 C 64 % 1026,0 hPa 0,0 l/m 0 min 0 min 0 W/m 6,4 km/h (2 Bft) 100,00 %
26.02.2023 18:42 2,7 C 1,1 C -2,2 C 64 % 1026,0 hPa 0,0 l/m 0 min 0 min 0 W/m 3,2 km/h (1 Bft) 100,00 %
26.02.2023 18:44 2,6 C 1,1 C -2,2 C 64 % 1026,0 hPa 0,0 l/m 0 min 0 min 0 W/m 6,4 km/h (2 Bft) 100,00 %
26.02.2023 18:46 2,6 C 1,1 C -2,2 C 64 % 1026,1 hPa 0,0 l/m 0 min 0 min 0 W/m 3,2 km/h (1 Bft) 100,00 %
26.02.2023 18:48 2,6 C 1,1 C -2,2 C 64 % 1026,1 hPa 0,0 l/m 0 min 0 min 0 W/m 9,7 km/h (2 Bft) 100,00 %
26.02.2023 18:50 2,6 C 1,1 C -2,2 C 65 % 1026,1 hPa 0,0 l/m 0 min 0 min 0 W/m 3,2 km/h (1 Bft) 97,87 %
26.02.2023 18:52 2,5 C 1,1 C -2,2 C 65 % 1026,1 hPa 0,0 l/m 0 min 0 min 0 W/m 3,2 km/h (1 Bft) 97,87 %
26.02.2023 18:54 2,5 C 1,1 C -2,8 C 65 % 1026,1 hPa 0,0 l/m 0 min 0 min 0 W/m 3,2 km/h (1 Bft) 97,87 %
26.02.2023 18:56 2,4 C 1,1 C -2,8 C 65 % 1026,1 hPa 0,0 l/m 0 min 0 min 0 W/m 12,9 km/h (3 Bft) 97,92 %
26.02.2023 18:58 2,4 C 1,1 C -2,8 C 65 % 1026,1 hPa 0,0 l/m 0 min 0 min 0 W/m 6,4 km/h (2 Bft) 97,87 %
26.02.2023 19:00 2,3 C 1,1 C -2,8 C 66 % 1026,1 hPa 0,0 l/m 0 min 0 min 0 W/m 6,4 km/h (2 Bft) 95,83 %
26.02.2023 19:02 2,3 C 1,1 C -2,2 C 66 % 1026,2 hPa 0,0 l/m 0 min 0 min 0 W/m 6,4 km/h (2 Bft) 95,74 %
26.02.2023 19:04 2,3 C 1,1 C -2,2 C 65 % 1026,2 hPa 0,0 l/m 0 min 0 min 0 W/m 6,4 km/h (2 Bft) 97,87 %
26.02.2023 19:06 2,2 C 1,1 C -2,2 C 65 % 1026,2 hPa 0,0 l/m 0 min 0 min 0 W/m 9,7 km/h (2 Bft) 97,83 %
26.02.2023 19:08 2,2 C 1,1 C -2,2 C 65 % 1026,2 hPa 0,0 l/m 0 min 0 min 0 W/m 9,7 km/h (2 Bft) 97,87 %
26.02.2023 19:10 2,2 C 1,1 C -2,2 C 65 % 1026,3 hPa 0,0 l/m 0 min 0 min 0 W/m 6,4 km/h (2 Bft) 97,87 %
26.02.2023 19:12 2,2 C 1,1 C -2,8 C 66 % 1026,3 hPa 0,0 l/m 0 min 0 min 0 W/m 12,9 km/h (3 Bft) 95,74 %
26.02.2023 19:14 2,1 C 1,1 C -2,8 C 66 % 1026,3 hPa 0,0 l/m 0 min 0 min 0 W/m 12,9 km/h (3 Bft) 97,87 %
26.02.2023 19:16 2,1 C 1,1 C -2,8 C 66 % 1026,3 hPa 0,0 l/m 0 min 0 min 0 W/m 6,4 km/h (2 Bft) 95,74 %
26.02.2023 19:18 2,1 C 0,6 C -2,8 C 66 % 1026,3 hPa 0,0 l/m 0 min 0 min 0 W/m 3,2 km/h (1 Bft) 93,62 %
26.02.2023 19:20 2,1 C 0,6 C -2,8 C 66 % 1026,3 hPa 0,0 l/m 0 min 0 min 0 W/m 3,2 km/h (1 Bft) 97,83 %
26.02.2023 19:22 2,0 C 0,6 C -2,8 C 66 % 1026,3 hPa 0,0 l/m 0 min 0 min 0 W/m 9,7 km/h (2 Bft) 97,87 %
26.02.2023 19:24 2,0 C 1,1 C -2,8 C 66 % 1026,3 hPa 0,0 l/m 0 min 0 min 0 W/m 6,4 km/h (2 Bft) 97,87 %
26.02.2023 19:26 2,0 C 0,6 C -2,8 C 66 % 1026,3 hPa 0,0 l/m 0 min 0 min 0 W/m 12,9 km/h (3 Bft) 97,87 %
26.02.2023 19:28 1,9 C 0,6 C -2,8 C 66 % 1026,3 hPa 0,0 l/m 0 min 0 min 0 W/m 3,2 km/h (1 Bft) 95,74 %
26.02.2023 19:30 1,9 C 0,6 C -2,8 C 67 % 1026,3 hPa 0,0 l/m 0 min 0 min 0 W/m 6,4 km/h (2 Bft) 95,74 %
26.02.2023 19:32 1,9 C 0,6 C -2,8 C 67 % 1026,3 hPa 0,0 l/m 0 min 0 min 0 W/m 3,2 km/h (1 Bft) 93,62 %
26.02.2023 19:34 1,9 C 0,6 C -2,8 C 67 % 1026,3 hPa 0,0 l/m 0 min 0 min 0 W/m 3,2 km/h (1 Bft) 93,48 %
26.02.2023 19:36 1,8 C 0,6 C -2,8 C 67 % 1026,4 hPa 0,0 l/m 0 min 0 min 0 W/m 3,2 km/h (1 Bft) 93,62 %
26.02.2023 19:38 1,8 C 0,6 C -3,3 C 68 % 1026,4 hPa 0,0 l/m 0 min 0 min 0 W/m 3,2 km/h (1 Bft) 95,74 %
26.02.2023 19:40 1,8 C 0,0 C -3,3 C 68 % 1026,3 hPa 0,0 l/m 0 min 0 min 0 W/m 3,2 km/h (1 Bft) 91,49 %
26.02.2023 19:42 1,8 C 0,0 C -3,3 C 68 % 1026,3 hPa 0,0 l/m 0 min 0 min 0 W/m 0,0 km/h (0 Bft) 93,62 %
26.02.2023 19:44 1,7 C 0,0 C -3,3 C 68 % 1026,3 hPa 0,0 l/m 0 min 0 min 0 W/m 3,2 km/h (1 Bft) 95,74 %
26.02.2023 19:46 1,7 C 0,0 C -3,3 C 68 % 1026,3 hPa 0,0 l/m 0 min 0 min 0 W/m 0,0 km/h (0 Bft) 93,62 %
26.02.2023 19:48 1,7 C 0,0 C -3,3 C 68 % 1026,3 hPa 0,0 l/m 0 min 0 min 0 W/m 0,0 km/h (0 Bft) 95,65 %
26.02.2023 19:50 1,6 C 0,0 C -3,3 C 68 % 1026,3 hPa 0,0 l/m 0 min 0 min 0 W/m 0,0 km/h (0 Bft) 95,74 %
26.02.2023 19:52 1,6 C 0,0 C -3,3 C 68 % 1026,3 hPa 0,0 l/m 0 min 0 min 0 W/m 3,2 km/h (1 Bft) 95,74 %
26.02.2023 19:54 1,6 C 0,0 C -3,3 C 68 % 1026,3 hPa 0,0 l/m 0 min 0 min 0 W/m 9,7 km/h (2 Bft) 95,35 %
26.02.2023 19:56 1,6 C 0,0 C -3,3 C 68 % 1026,3 hPa 0,0 l/m 0 min 0 min 0 W/m 3,2 km/h (1 Bft) 95,74 %
26.02.2023 19:58 1,5 C 0,0 C -3,3 C 69 % 1026,4 hPa 0,0 l/m 0 min 0 min 0 W/m 3,2 km/h (1 Bft) 95,65 %
26.02.2023 20:00 1,5 C 0,0 C -3,3 C 69 % 1026,3 hPa 0,0 l/m 0 min 0 min 0 W/m 3,2 km/h (1 Bft) 97,87 %
26.02.2023 20:02 1,4 C 0,0 C -3,3 C 69 % 1026,4 hPa 0,0 l/m 0 min 0 min 0 W/m 12,9 km/h (3 Bft) 44,74 %
26.02.2023 20:04 1,4 C 0,0 C -3,3 C 69 % 1026,4 hPa 0,0 l/m 0 min 0 min 0 W/m 3,2 km/h (1 Bft) 97,87 %
26.02.2023 20:06 1,4 C 0,0 C -3,3 C 69 % 1026,4 hPa 0,0 l/m 0 min 0 min 0 W/m 6,4 km/h (2 Bft) 94,92 %
26.02.2023 20:08 1,4 C 0,0 C -3,3 C 70 % 1026,3 hPa 0,0 l/m 0 min 0 min 0 W/m 3,2 km/h (1 Bft) 100,00 %
26.02.2023 20:10 1,3 C 0,0 C -3,3 C 70 % 1026,4 hPa 0,0 l/m 0 min 0 min 0 W/m 6,4 km/h (2 Bft) 100,00 %
26.02.2023 20:12 1,3 C 0,6 C -2,8 C 70 % 1026,4 hPa 0,0 l/m 0 min 0 min 0 W/m 6,4 km/h (2 Bft) 100,00 %
26.02.2023 20:14 1,4 C 0,6 C -2,8 C 71 % 1026,4 hPa 0,0 l/m 0 min 0 min 0 W/m 6,4 km/h (2 Bft) 98,00 %
26.02.2023 20:16 1,4 C 0,6 C -2,8 C 71 % 1026,4 hPa 0,0 l/m 0 min 0 min 0 W/m 3,2 km/h (1 Bft) 100,00 %
26.02.2023 20:18 1,4 C 0,6 C -2,8 C 71 % 1026,5 hPa 0,0 l/m 0 min 0 min 0 W/m 6,4 km/h (2 Bft) 100,00 %
26.02.2023 20:20 1,4 C 0,6 C -2,8 C 71 % 1026,5 hPa 0,0 l/m 0 min 0 min 0 W/m 6,4 km/h (2 Bft) 100,00 %
26.02.2023 20:22 1,4 C 0,6 C -2,8 C 71 % 1026,5 hPa 0,0 l/m 0 min 0 min 0 W/m 3,2 km/h (1 Bft) 97,87 %
26.02.2023 20:24 1,5 C 0,6 C -2,8 C 71 % 1026,5 hPa 0,0 l/m 0 min 0 min 0 W/m 9,7 km/h (2 Bft) 100,00 %
26.02.2023 20:26 1,5 C 0,6 C -2,8 C 71 % 1026,5 hPa 0,0 l/m 0 min 0 min 0 W/m 6,4 km/h (2 Bft) 100,00 %
26.02.2023 20:28 1,5 C 1,1 C -2,8 C 71 % 1026,5 hPa 0,0 l/m 0 min 0 min 0 W/m 6,4 km/h (2 Bft) 100,00 %
26.02.2023 20:30 1,6 C 1,1 C -2,8 C 71 % 1026,6 hPa 0,0 l/m 0 min 0 min 0 W/m 6,4 km/h (2 Bft) 100,00 %
26.02.2023 20:32 1,6 C 1,1 C -2,2 C 72 % 1026,7 hPa 0,0 l/m 0 min 0 min 0 W/m 9,7 km/h (2 Bft) 97,87 %
26.02.2023 20:34 1,6 C 1,1 C -2,2 C 72 % 1026,7 hPa 0,0 l/m 0 min 0 min 0 W/m 3,2 km/h (1 Bft) 97,87 %
26.02.2023 20:36 1,7 C 1,1 C -2,2 C 72 % 1026,7 hPa 0,0 l/m 0 min 0 min 0 W/m 6,4 km/h (2 Bft) 100,00 %
26.02.2023 20:38 1,7 C 1,1 C -2,2 C 72 % 1026,8 hPa 0,0 l/m 0 min 0 min 0 W/m 6,4 km/h (2 Bft) 100,00 %
26.02.2023 20:40 1,7 C 1,1 C -2,2 C 72 % 1026,8 hPa 0,0 l/m 0 min 0 min 0 W/m 3,2 km/h (1 Bft) 100,00 %
26.02.2023 20:42 1,8 C 1,1 C -2,2 C 72 % 1026,8 hPa 0,0 l/m 0 min 0 min 0 W/m 3,2 km/h (1 Bft) 97,83 %
26.02.2023 20:44 1,8 C 1,1 C -2,2 C 72 % 1026,8 hPa 0,0 l/m 0 min 0 min 0 W/m 3,2 km/h (1 Bft) 97,87 %
26.02.2023 20:46 1,8 C 1,1 C -2,2 C 72 % 1026,9 hPa 0,0 l/m 0 min 0 min 0 W/m 3,2 km/h (1 Bft) 100,00 %
26.02.2023 20:48 1,8 C 1,1 C -2,2 C 73 % 1026,8 hPa 0,0 l/m 0 min 0 min 0 W/m 3,2 km/h (1 Bft) 97,87 %
26.02.2023 20:50 1,8 C 1,1 C -2,2 C 73 % 1026,9 hPa 0,0 l/m 0 min 0 min 0 W/m 3,2 km/h (1 Bft) 100,00 %
26.02.2023 20:52 1,8 C 1,1 C -2,2 C 73 % 1026,9 hPa 0,0 l/m 0 min 0 min 0 W/m 0,0 km/h (0 Bft) 97,87 %
26.02.2023 20:54 1,8 C 1,1 C -2,2 C 73 % 1026,9 hPa 0,0 l/m 0 min 0 min 0 W/m 3,2 km/h (1 Bft) 100,00 %
26.02.2023 20:56 1,8 C 1,1 C -2,2 C 73 % 1026,9 hPa 0,0 l/m 0 min 0 min 0 W/m 3,2 km/h (1 Bft) 100,00 %
26.02.2023 20:58 1,8 C 1,1 C -2,2 C 73 % 1026,9 hPa 0,0 l/m 0 min 0 min 0 W/m 0,0 km/h (0 Bft) 97,87 %
26.02.2023 21:00 1,8 C 1,1 C -2,2 C 73 % 1026,9 hPa 0,0 l/m 0 min 0 min 0 W/m 3,2 km/h (1 Bft) 100,00 %
26.02.2023 21:02 1,8 C 1,1 C -2,2 C 73 % 1027,0 hPa 0,0 l/m 0 min 0 min 0 W/m 0,0 km/h (0 Bft) 97,87 %
26.02.2023 21:04 1,8 C 1,1 C -2,2 C 72 % 1027,1 hPa 0,0 l/m 0 min 0 min 0 W/m 0,0 km/h (0 Bft) 100,00 %
26.02.2023 21:06 1,9 C 1,7 C -2,2 C 72 % 1027,1 hPa 0,0 l/m 0 min 0 min 0 W/m 0,0 km/h (0 Bft) 98,28 %
26.02.2023 21:08 1,9 C 1,7 C -2,2 C 72 % 1027,1 hPa 0,0 l/m 0 min 0 min 0 W/m 0,0 km/h (0 Bft) 97,30 %
26.02.2023 21:10 1,9 C 1,7 C -2,2 C 72 % 1027,2 hPa 0,0 l/m 0 min 0 min 0 W/m 0,0 km/h (0 Bft) 100,00 %
26.02.2023 21:12 1,9 C 1,7 C -2,2 C 72 % 1027,1 hPa 0,0 l/m 0 min 0 min 0 W/m 0,0 km/h (0 Bft) 100,00 %
26.02.2023 21:14 1,9 C 1,1 C -2,2 C 72 % 1027,1 hPa 0,0 l/m 0 min 0 min 0 W/m 0,0 km/h (0 Bft) 95,83 %
26.02.2023 21:16 1,9 C 1,1 C -2,2 C 72 % 1027,2 hPa 0,0 l/m 0 min 0 min 0 W/m 0,0 km/h (0 Bft) 97,87 %
26.02.2023 21:18 1,9 C 1,1 C -2,2 C 73 % 1027,2 hPa 0,0 l/m 0 min 0 min 0 W/m 0,0 km/h (0 Bft) 97,92 %
26.02.2023 21:20 1,9 C 1,1 C -2,2 C 73 % 1027,2 hPa 0,0 l/m 0 min 0 min 0 W/m 0,0 km/h (0 Bft) 95,74 %
26.02.2023 21:22 1,9 C 1,1 C -2,2 C 73 % 1027,2 hPa 0,0 l/m 0 min 0 min 0 W/m 0,0 km/h (0 Bft) 97,87 %
26.02.2023 21:24 2,0 C 1,1 C -2,2 C 73 % 1027,2 hPa 0,0 l/m 0 min 0 min 0 W/m 6,4 km/h (2 Bft) 95,65 %
26.02.2023 21:26 2,0 C 1,7 C -2,2 C 73 % 1027,2 hPa 0,0 l/m 0 min 0 min 0 W/m 3,2 km/h (1 Bft) 91,49 %
26.02.2023 21:28 2,0 C 1,1 C -2,2 C 73 % 1027,3 hPa 0,0 l/m 0 min 0 min 0 W/m 3,2 km/h (1 Bft) 93,62 %
26.02.2023 21:30 2,1 C 1,1 C -2,2 C 73 % 1027,3 hPa 0,0 l/m 0 min 0 min 0 W/m 3,2 km/h (1 Bft) 95,74 %
26.02.2023 21:32 2,1 C 1,1 C -2,2 C 73 % 1027,3 hPa 0,0 l/m 0 min 0 min 0 W/m 3,2 km/h (1 Bft) 93,62 %
26.02.2023 21:34 2,1 C 1,1 C -2,2 C 73 % 1027,3 hPa 0,0 l/m 0 min 0 min 0 W/m 6,4 km/h (2 Bft) 95,74 %
26.02.2023 21:36 2,1 C 1,1 C -2,2 C 74 % 1027,3 hPa 0,0 l/m 0 min 0 min 0 W/m 6,4 km/h (2 Bft) 93,62 %
26.02.2023 21:38 2,1 C 1,1 C -2,2 C 74 % 1027,3 hPa 0,0 l/m 0 min 0 min 0 W/m 6,4 km/h (2 Bft) 95,74 %
26.02.2023 21:40 2,1 C 1,1 C -2,2 C 74 % 1027,3 hPa 0,0 l/m 0 min 0 min 0 W/m 6,4 km/h (2 Bft) 95,65 %
26.02.2023 21:42 2,1 C 1,1 C -2,2 C 74 % 1027,4 hPa 0,0 l/m 0 min 0 min 0 W/m 6,4 km/h (2 Bft) 93,62 %
26.02.2023 21:44 2,1 C 1,1 C -2,2 C 74 % 1027,4 hPa 0,0 l/m 0 min 0 min 0 W/m 3,2 km/h (1 Bft) 95,74 %
26.02.2023 21:46 2,1 C 1,1 C -2,2 C 74 % 1027,4 hPa 0,0 l/m 0 min 0 min 0 W/m 3,2 km/h (1 Bft) 97,87 %
26.02.2023 21:48 2,1 C 1,1 C -2,2 C 74 % 1027,4 hPa 0,0 l/m 0 min 0 min 0 W/m 3,2 km/h (1 Bft) 97,87 %
26.02.2023 21:50 2,1 C 1,1 C -2,2 C 74 % 1027,5 hPa 0,0 l/m 0 min 0 min 0 W/m 3,2 km/h (1 Bft) 97,87 %
26.02.2023 21:52 2,1 C 1,1 C -2,2 C 75 % 1027,4 hPa 0,0 l/m 0 min 0 min 0 W/m 3,2 km/h (1 Bft) 93,62 %
26.02.2023 21:54 2,1 C 1,1 C -2,2 C 75 % 1027,5 hPa 0,0 l/m 0 min 0 min 0 W/m 6,4 km/h (2 Bft) 97,83 %
26.02.2023 21:56 2,1 C 1,1 C -2,2 C 75 % 1027,5 hPa 0,0 l/m 0 min 0 min 0 W/m 6,4 km/h (2 Bft) 97,22 %
26.02.2023 21:58 2,1 C 1,1 C -2,2 C 75 % 1027,5 hPa 0,0 l/m 0 min 0 min 0 W/m 9,7 km/h (2 Bft) 100,00 %
26.02.2023 22:00 2,1 C 1,1 C -2,2 C 75 % 1027,5 hPa 0,0 l/m 0 min 0 min 0 W/m 3,2 km/h (1 Bft) 100,00 %
26.02.2023 22:02 2,1 C 1,1 C -2,2 C 75 % 1027,5 hPa 0,0 l/m 0 min 0 min 0 W/m 3,2 km/h (1 Bft) 100,00 %
26.02.2023 22:04 2,1 C 1,1 C -2,2 C 75 % 1027,5 hPa 0,0 l/m 0 min 0 min 0 W/m 0,0 km/h (0 Bft) 100,00 %
26.02.2023 22:06 2,1 C 1,1 C -2,2 C 75 % 1027,6 hPa 0,0 l/m 0 min 0 min 0 W/m 0,0 km/h (0 Bft) 96,88 %
26.02.2023 22:08 2,1 C 1,7 C -2,2 C 75 % 1027,6 hPa 0,0 l/m 0 min 0 min 0 W/m 0,0 km/h (0 Bft) 100,00 %
26.02.2023 22:10 2,1 C 1,7 C -2,2 C 75 % 1027,5 hPa 0,0 l/m 0 min 0 min 0 W/m 0,0 km/h (0 Bft) 95,65 %
26.02.2023 22:12 2,2 C 1,7 C -2,2 C 75 % 1027,6 hPa 0,0 l/m 0 min 0 min 0 W/m 0,0 km/h (0 Bft) 96,36 %
26.02.2023 22:14 2,2 C 1,7 C -2,2 C 75 % 1027,6 hPa 0,0 l/m 0 min 0 min 0 W/m 0,0 km/h (0 Bft) 97,87 %
26.02.2023 22:16 2,2 C 1,7 C -2,2 C 75 % 1027,6 hPa 0,0 l/m 0 min 0 min 0 W/m 0,0 km/h (0 Bft) 93,62 %
26.02.2023 22:18 2,2 C 1,7 C -2,2 C 75 % 1027,7 hPa 0,0 l/m 0 min 0 min 0 W/m 0,0 km/h (0 Bft) 97,83 %
26.02.2023 22:20 2,2 C 1,7 C -2,2 C 75 % 1027,6 hPa 0,0 l/m 0 min 0 min 0 W/m 0,0 km/h (0 Bft) 97,87 %
26.02.2023 22:22 2,2 C 1,7 C -2,2 C 75 % 1027,6 hPa 0,0 l/m 0 min 0 min 0 W/m 0,0 km/h (0 Bft) 97,87 %
26.02.2023 22:24 2,2 C 1,7 C -2,2 C 75 % 1027,6 hPa 0,0 l/m 0 min 0 min 0 W/m 0,0 km/h (0 Bft) 97,87 %
26.02.2023 22:26 2,2 C 1,7 C -2,2 C 75 % 1027,7 hPa 0,0 l/m 0 min 0 min 0 W/m 0,0 km/h (0 Bft) 97,87 %
26.02.2023 22:28 2,2 C 1,7 C -2,2 C 75 % 1027,6 hPa 0,0 l/m 0 min 0 min 0 W/m 0,0 km/h (0 Bft) 95,74 %
26.02.2023 22:30 2,2 C 1,7 C -2,2 C 75 % 1027,7 hPa 0,0 l/m 0 min 0 min 0 W/m 0,0 km/h (0 Bft) 97,87 %
26.02.2023 22:32 2,2 C 1,7 C -2,2 C 75 % 1027,7 hPa 0,0 l/m 0 min 0 min 0 W/m 0,0 km/h (0 Bft) 95,65 %
26.02.2023 22:34 2,2 C 1,7 C -2,2 C 75 % 1027,7 hPa 0,0 l/m 0 min 0 min 0 W/m 0,0 km/h (0 Bft) 97,87 %
26.02.2023 22:36 2,2 C 1,7 C -2,2 C 75 % 1027,7 hPa 0,0 l/m 0 min 0 min 0 W/m 0,0 km/h (0 Bft) 97,87 %
26.02.2023 22:38 2,2 C 1,7 C -2,2 C 75 % 1027,7 hPa 0,0 l/m 0 min 0 min 0 W/m 0,0 km/h (0 Bft) 95,74 %
26.02.2023 22:40 2,2 C 1,7 C -2,2 C 75 % 1027,7 hPa 0,0 l/m 0 min 0 min 0 W/m 0,0 km/h (0 Bft) 97,87 %
26.02.2023 22:42 2,2 C 1,1 C -2,2 C 75 % 1027,6 hPa 0,0 l/m 0 min 0 min 0 W/m 0,0 km/h (0 Bft) 97,87 %
26.02.2023 22:44 2,2 C 1,1 C -2,2 C 74 % 1027,6 hPa 0,0 l/m 0 min 0 min 0 W/m 0,0 km/h (0 Bft) 95,74 %
26.02.2023 22:46 2,2 C 1,1 C -2,2 C 74 % 1027,6 hPa 0,0 l/m 0 min 0 min 0 W/m 0,0 km/h (0 Bft) 97,83 %
26.02.2023 22:48 2,2 C 1,1 C -2,2 C 74 % 1027,6 hPa 0,0 l/m 0 min 0 min 0 W/m 0,0 km/h (0 Bft) 97,87 %
26.02.2023 22:50 2,1 C 1,1 C -2,8 C 74 % 1027,7 hPa 0,0 l/m 0 min 0 min 0 W/m 0,0 km/h (0 Bft) 97,87 %
26.02.2023 22:52 2,1 C 0,6 C -2,8 C 74 % 1027,7 hPa 0,0 l/m 0 min 0 min 0 W/m 0,0 km/h (0 Bft) 100,00 %
26.02.2023 22:54 2,0 C 0,6 C -2,8 C 74 % 1027,7 hPa 0,0 l/m 0 min 0 min 0 W/m 0,0 km/h (0 Bft) 95,74 %
26.02.2023 22:56 1,9 C 0,6 C -2,8 C 74 % 1027,8 hPa 0,0 l/m 0 min 0 min 0 W/m 0,0 km/h (0 Bft) 97,87 %
26.02.2023 22:58 1,9 C 0,6 C -2,8 C 74 % 1027,8 hPa 0,0 l/m 0 min 0 min 0 W/m 0,0 km/h (0 Bft) 97,92 %
26.02.2023 23:00 1,9 C 0,0 C -2,8 C 74 % 1027,8 hPa 0,0 l/m 0 min 0 min 0 W/m 0,0 km/h (0 Bft) 97,83 %
26.02.2023 23:02 1,8 C 0,0 C -3,3 C 75 % 1027,8 hPa 0,0 l/m 0 min 0 min 0 W/m 0,0 km/h (0 Bft) 100,00 %
26.02.2023 23:04 1,8 C 0,0 C -3,3 C 75 % 1027,7 hPa 0,0 l/m 0 min 0 min 0 W/m 0,0 km/h (0 Bft) 97,87 %
26.02.2023 23:06 1,7 C 0,0 C -3,3 C 75 % 1027,7 hPa 0,0 l/m 0 min 0 min 0 W/m 0,0 km/h (0 Bft) 95,74 %
26.02.2023 23:08 1,6 C 0,0 C -3,3 C 75 % 1027,7 hPa 0,0 l/m 0 min 0 min 0 W/m 0,0 km/h (0 Bft) 97,87 %
26.02.2023 23:10 1,6 C 0,0 C -3,3 C 75 % 1027,7 hPa 0,0 l/m 0 min 0 min 0 W/m 0,0 km/h (0 Bft) 97,87 %
26.02.2023 23:12 1,5 C -0,6 C -3,3 C 75 % 1027,7 hPa 0,0 l/m 0 min 0 min 0 W/m 0,0 km/h (0 Bft) 97,87 %
26.02.2023 23:14 1,4 C -0,6 C -3,9 C 75 % 1027,7 hPa 0,0 l/m 0 min 0 min 0 W/m 0,0 km/h (0 Bft) 95,65 %
26.02.2023 23:16 1,4 C -0,6 C -3,9 C 76 % 1027,7 hPa 0,0 l/m 0 min 0 min 0 W/m 0,0 km/h (0 Bft) 97,87 %
26.02.2023 23:18 1,3 C -0,6 C -3,9 C 76 % 1027,7 hPa 0,0 l/m 0 min 0 min 0 W/m 0,0 km/h (0 Bft) 93,62 %
26.02.2023 23:20 1,3 C -0,6 C -3,9 C 76 % 1027,7 hPa 0,0 l/m 0 min 0 min 0 W/m 0,0 km/h (0 Bft) 95,74 %
26.02.2023 23:22 1,2 C -0,6 C -3,9 C 76 % 1027,7 hPa 0,0 l/m 0 min 0 min 0 W/m 0,0 km/h (0 Bft) 94,00 %
26.02.2023 23:24 1,2 C -0,6 C -3,9 C 76 % 1027,7 hPa 0,0 l/m 0 min 0 min 0 W/m 0,0 km/h (0 Bft) 93,62 %
26.02.2023 23:26 1,1 C -1,1 C -3,9 C 76 % 1027,7 hPa 0,0 l/m 0 min 0 min 0 W/m 0,0 km/h (0 Bft) 95,74 %
26.02.2023 23:28 1,1 C -1,1 C -3,9 C 77 % 1027,8 hPa 0,0 l/m 0 min 0 min 0 W/m 0,0 km/h (0 Bft) 97,83 %
26.02.2023 23:30 1,1 C -1,1 C -3,9 C 77 % 1027,8 hPa 0,0 l/m 0 min 0 min 0 W/m 0,0 km/h (0 Bft) 95,74 %
26.02.2023 23:32 1,0 C -1,1 C -3,9 C 77 % 1027,8 hPa 0,0 l/m 0 min 0 min 0 W/m 0,0 km/h (0 Bft) 95,74 %
26.02.2023 23:34 0,9 C -1,1 C -3,9 C 77 % 1027,8 hPa 0,0 l/m 0 min 0 min 0 W/m 0,0 km/h (0 Bft) 95,74 %
26.02.2023 23:36 0,9 C -1,1 C -4,4 C 77 % 1027,8 hPa 0,0 l/m 0 min 0 min 0 W/m 0,0 km/h (0 Bft) 91,49 %
26.02.2023 23:38 0,8 C -1,1 C -4,4 C 77 % 1027,8 hPa 0,0 l/m 0 min 0 min 0 W/m 0,0 km/h (0 Bft) 95,74 %
26.02.2023 23:40 0,7 C -1,1 C -4,4 C 77 % 1027,8 hPa 0,0 l/m 0 min 0 min 0 W/m 0,0 km/h (0 Bft) 95,74 %
26.02.2023 23:42 0,7 C -1,1 C -4,4 C 77 % 1027,8 hPa 0,0 l/m 0 min 0 min 0 W/m 0,0 km/h (0 Bft) 95,65 %
26.02.2023 23:44 0,6 C -1,1 C -4,4 C 77 % 1027,9 hPa 0,0 l/m 0 min 0 min 0 W/m 0,0 km/h (0 Bft) 97,87 %
26.02.2023 23:46 0,6 C -1,1 C -4,4 C 78 % 1027,9 hPa 0,0 l/m 0 min 0 min 0 W/m 0,0 km/h (0 Bft) 100,00 %
26.02.2023 23:48 0,6 C -1,1 C -4,4 C 78 % 1027,9 hPa 0,0 l/m 0 min 0 min 0 W/m 0,0 km/h (0 Bft) 100,00 %
26.02.2023 23:50 0,6 C -1,1 C -4,4 C 78 % 1027,9 hPa 0,0 l/m 0 min 0 min 0 W/m 0,0 km/h (0 Bft) 100,00 %
26.02.2023 23:52 0,5 C -1,1 C -4,4 C 78 % 1027,9 hPa 0,0 l/m 0 min 0 min 0 W/m 0,0 km/h (0 Bft) 100,00 %
26.02.2023 23:54 0,4 C -1,7 C -4,4 C 78 % 1028,0 hPa 0,0 l/m 0 min 0 min 0 W/m 0,0 km/h (0 Bft) 97,83 %
26.02.2023 23:56 0,4 C -1,7 C -4,4 C 78 % 1027,9 hPa 0,0 l/m 0 min 0 min 0 W/m 0,0 km/h (0 Bft) 95,74 %
26.02.2023 23:58 0,4 C -1,7 C -5,0 C 78 % 1028,0 hPa 0,0 l/m 0 min 0 min 0 W/m 0,0 km/h (0 Bft) 100,00 %
_ Min-Zeit 07:30 07:20 05:42 15:12 00:00 - - - - 19:42 00:02
Minimum _ -1,7 C -2,8 C -5,6 C 53 % 1017,1 hPa - - - - 0,0 km/h (0 Bft) 15,38 %
_ Max-Zeit 13:30 11:34 11:34 05:16 23:54 00:00 09:35 00:00 11:34 13:30 00:08
Maximum _ 5,9 C 16,1 C 4,4 C 89 % 1028,0 hPa 0,0 l/m 5 min 0 min 652 W/m 38,6 km/h
O-NO (5 Bft)
100,00 %
Durchschnitt _ 1,7 C 2,5 C -2,4 C 74 % 1023,2 hPa #0,0 l/m #6:32 h #0 min. 268 W/m 11,7 km/h (2 Bft) 96,79 %
© 2023 W. Hausmann